<?xml version="1.0" encoding="UTF-8" standalone="no" ?>
<gpx xmlns="http://www.topografix.com/GPX/1/1" xmlns:xsi="http://www.w3.org/2001/XMLSchema-instance" xsi:schemaLocation="http://www.topografix.com/GPX/1/1 http://www.topografix.com/GPX/1/1/gpx.xsd" version="1.1" creator="VisuGPX - https://www.visugpx.com">
  <metadata>
    <name>Creully sur Seulles </name>
    <desc><![CDATA[Belle randonnée de 10 km qui traverse les 3 communes historiques de Creully-sur-Seulles ( Villiers-le-Sec, Saint-Gabriel-Brécy et Creully). Vues magnifiques des balcons de la Seulles.  ]]></desc>
  </metadata>
  <trk>
    <name><![CDATA[Creully sur Seulles Course à pied]]></name>
    <trkseg>
      <trkpt lat="49.28677" lon="-0.53764">
        <ele>29.60000038147</ele>
        <time>2019-12-03T13:02:30.000Z</time>
      </trkpt>
      <trkpt lat="49.28671" lon="-0.53771">
        <ele>29.60000038147</ele>
        <time>2019-12-03T13:03:31.000Z</time>
      </trkpt>
      <trkpt lat="49.28666" lon="-0.53797">
        <ele>29.39999961853</ele>
        <time>2019-12-03T13:03:50.000Z</time>
      </trkpt>
      <trkpt lat="49.28655" lon="-0.53819">
        <ele>29.200000762939</ele>
        <time>2019-12-03T13:04:08.000Z</time>
      </trkpt>
      <trkpt lat="49.2865" lon="-0.53842">
        <ele>29</ele>
        <time>2019-12-03T13:04:26.000Z</time>
      </trkpt>
      <trkpt lat="49.28662" lon="-0.53858">
        <ele>28.39999961853</ele>
        <time>2019-12-03T13:04:41.000Z</time>
      </trkpt>
      <trkpt lat="49.28663" lon="-0.53865">
        <ele>28.200000762939</ele>
        <time>2019-12-03T13:04:47.000Z</time>
      </trkpt>
      <trkpt lat="49.28665" lon="-0.53874">
        <ele>28</ele>
        <time>2019-12-03T13:04:53.000Z</time>
      </trkpt>
      <trkpt lat="49.2868" lon="-0.53889">
        <ele>27</ele>
        <time>2019-12-03T13:05:15.000Z</time>
      </trkpt>
      <trkpt lat="49.28695" lon="-0.53905">
        <ele>25</ele>
        <time>2019-12-03T13:05:36.000Z</time>
      </trkpt>
      <trkpt lat="49.28711" lon="-0.53917">
        <ele>22.799999237061</ele>
        <time>2019-12-03T13:05:55.000Z</time>
      </trkpt>
      <trkpt lat="49.28721" lon="-0.53933">
        <ele>20.60000038147</ele>
        <time>2019-12-03T13:06:15.000Z</time>
      </trkpt>
      <trkpt lat="49.28718" lon="-0.53955">
        <ele>18.799999237061</ele>
        <time>2019-12-03T13:06:37.000Z</time>
      </trkpt>
      <trkpt lat="49.28701" lon="-0.53969">
        <ele>18.60000038147</ele>
        <time>2019-12-03T13:07:00.000Z</time>
      </trkpt>
      <trkpt lat="49.28685" lon="-0.5398">
        <ele>18.799999237061</ele>
        <time>2019-12-03T13:07:18.000Z</time>
      </trkpt>
      <trkpt lat="49.28671" lon="-0.53998">
        <ele>18.200000762939</ele>
        <time>2019-12-03T13:07:36.000Z</time>
      </trkpt>
      <trkpt lat="49.28656" lon="-0.54013">
        <ele>18</ele>
        <time>2019-12-03T13:07:52.000Z</time>
      </trkpt>
      <trkpt lat="49.2865" lon="-0.54028">
        <ele>17.200000762939</ele>
        <time>2019-12-03T13:08:05.000Z</time>
      </trkpt>
      <trkpt lat="49.28652" lon="-0.54031">
        <ele>16.799999237061</ele>
        <time>2019-12-03T13:08:10.000Z</time>
      </trkpt>
      <trkpt lat="49.28669" lon="-0.54041">
        <ele>14.800000190735</ele>
        <time>2019-12-03T13:08:32.000Z</time>
      </trkpt>
      <trkpt lat="49.28687" lon="-0.54045">
        <ele>13.199999809265</ele>
        <time>2019-12-03T13:08:48.000Z</time>
      </trkpt>
      <trkpt lat="49.28705" lon="-0.54052">
        <ele>11.800000190735</ele>
        <time>2019-12-03T13:09:03.000Z</time>
      </trkpt>
      <trkpt lat="49.28716" lon="-0.54061">
        <ele>11.199999809265</ele>
        <time>2019-12-03T13:09:15.000Z</time>
      </trkpt>
      <trkpt lat="49.28718" lon="-0.54061">
        <ele>11.199999809265</ele>
        <time>2019-12-03T13:09:19.000Z</time>
      </trkpt>
      <trkpt lat="49.28735" lon="-0.54071">
        <ele>10.60000038147</ele>
        <time>2019-12-03T13:09:36.000Z</time>
      </trkpt>
      <trkpt lat="49.28752" lon="-0.54081">
        <ele>10</ele>
        <time>2019-12-03T13:09:54.000Z</time>
      </trkpt>
      <trkpt lat="49.2877" lon="-0.54092">
        <ele>9.6000003814697</ele>
        <time>2019-12-03T13:10:11.000Z</time>
      </trkpt>
      <trkpt lat="49.28787" lon="-0.54102">
        <ele>9.1999998092651</ele>
        <time>2019-12-03T13:10:27.000Z</time>
      </trkpt>
      <trkpt lat="49.28788" lon="-0.54103">
        <ele>9.1999998092651</ele>
        <time>2019-12-03T13:10:28.000Z</time>
      </trkpt>
      <trkpt lat="49.28796" lon="-0.54109">
        <ele>9</ele>
        <time>2019-12-03T13:10:36.000Z</time>
      </trkpt>
      <trkpt lat="49.28805" lon="-0.54115">
        <ele>8.8000001907349</ele>
        <time>2019-12-03T13:10:45.000Z</time>
      </trkpt>
      <trkpt lat="49.28812" lon="-0.54124">
        <ele>8.8000001907349</ele>
        <time>2019-12-03T13:10:54.000Z</time>
      </trkpt>
      <trkpt lat="49.28827" lon="-0.54139">
        <ele>9</ele>
        <time>2019-12-03T13:11:11.000Z</time>
      </trkpt>
      <trkpt lat="49.28844" lon="-0.5415">
        <ele>8.8000001907349</ele>
        <time>2019-12-03T13:11:27.000Z</time>
      </trkpt>
      <trkpt lat="49.2886" lon="-0.54166">
        <ele>9</ele>
        <time>2019-12-03T13:11:43.000Z</time>
      </trkpt>
      <trkpt lat="49.28873" lon="-0.54186">
        <ele>9.3999996185303</ele>
        <time>2019-12-03T13:11:58.000Z</time>
      </trkpt>
      <trkpt lat="49.28886" lon="-0.54207">
        <ele>9.8000001907349</ele>
        <time>2019-12-03T13:12:15.000Z</time>
      </trkpt>
      <trkpt lat="49.2889" lon="-0.54214">
        <ele>9.8000001907349</ele>
        <time>2019-12-03T13:12:21.000Z</time>
      </trkpt>
      <trkpt lat="49.28905" lon="-0.54233">
        <ele>10.60000038147</ele>
        <time>2019-12-03T13:12:38.000Z</time>
      </trkpt>
      <trkpt lat="49.28917" lon="-0.54253">
        <ele>11.60000038147</ele>
        <time>2019-12-03T13:12:53.000Z</time>
      </trkpt>
      <trkpt lat="49.28926" lon="-0.5427">
        <ele>12.39999961853</ele>
        <time>2019-12-03T13:13:06.000Z</time>
      </trkpt>
      <trkpt lat="49.28928" lon="-0.54292">
        <ele>13.199999809265</ele>
        <time>2019-12-03T13:13:31.000Z</time>
      </trkpt>
      <trkpt lat="49.28926" lon="-0.54302">
        <ele>13.60000038147</ele>
        <time>2019-12-03T13:13:37.000Z</time>
      </trkpt>
      <trkpt lat="49.28922" lon="-0.54322">
        <ele>14</ele>
        <time>2019-12-03T13:13:54.000Z</time>
      </trkpt>
      <trkpt lat="49.28916" lon="-0.5434">
        <ele>14.60000038147</ele>
        <time>2019-12-03T13:14:06.000Z</time>
      </trkpt>
      <trkpt lat="49.28912" lon="-0.54353">
        <ele>15.199999809265</ele>
        <time>2019-12-03T13:14:16.000Z</time>
      </trkpt>
      <trkpt lat="49.28912" lon="-0.54357">
        <ele>15.39999961853</ele>
        <time>2019-12-03T13:14:18.000Z</time>
      </trkpt>
      <trkpt lat="49.28909" lon="-0.54384">
        <ele>16.799999237061</ele>
        <time>2019-12-03T13:14:33.000Z</time>
      </trkpt>
      <trkpt lat="49.28908" lon="-0.54388">
        <ele>16.799999237061</ele>
        <time>2019-12-03T13:14:35.000Z</time>
      </trkpt>
      <trkpt lat="49.28902" lon="-0.54408">
        <ele>16.799999237061</ele>
        <time>2019-12-03T13:14:47.000Z</time>
      </trkpt>
      <trkpt lat="49.28895" lon="-0.54433">
        <ele>17</ele>
        <time>2019-12-03T13:15:05.000Z</time>
      </trkpt>
      <trkpt lat="49.28897" lon="-0.54451">
        <ele>17.39999961853</ele>
        <time>2019-12-03T13:15:14.000Z</time>
      </trkpt>
      <trkpt lat="49.28904" lon="-0.54478">
        <ele>18.39999961853</ele>
        <time>2019-12-03T13:15:33.000Z</time>
      </trkpt>
      <trkpt lat="49.2892" lon="-0.54489">
        <ele>19.799999237061</ele>
        <time>2019-12-03T13:15:51.000Z</time>
      </trkpt>
      <trkpt lat="49.28936" lon="-0.54501">
        <ele>20.60000038147</ele>
        <time>2019-12-03T13:16:07.000Z</time>
      </trkpt>
      <trkpt lat="49.28944" lon="-0.54507">
        <ele>20.799999237061</ele>
        <time>2019-12-03T13:16:17.000Z</time>
      </trkpt>
      <trkpt lat="49.2896" lon="-0.5452">
        <ele>22.39999961853</ele>
        <time>2019-12-03T13:16:33.000Z</time>
      </trkpt>
      <trkpt lat="49.28975" lon="-0.54536">
        <ele>23.799999237061</ele>
        <time>2019-12-03T13:16:53.000Z</time>
      </trkpt>
      <trkpt lat="49.28993" lon="-0.54543">
        <ele>25.200000762939</ele>
        <time>2019-12-03T13:17:08.000Z</time>
      </trkpt>
      <trkpt lat="49.28999" lon="-0.54548">
        <ele>25.799999237061</ele>
        <time>2019-12-03T13:17:17.000Z</time>
      </trkpt>
      <trkpt lat="49.28999" lon="-0.54549">
        <ele>25.799999237061</ele>
        <time>2019-12-03T13:17:19.000Z</time>
      </trkpt>
      <trkpt lat="49.29016" lon="-0.54562">
        <ele>27.39999961853</ele>
        <time>2019-12-03T13:17:37.000Z</time>
      </trkpt>
      <trkpt lat="49.29033" lon="-0.54573">
        <ele>28.200000762939</ele>
        <time>2019-12-03T13:17:51.000Z</time>
      </trkpt>
      <trkpt lat="49.29036" lon="-0.54577">
        <ele>28.200000762939</ele>
        <time>2019-12-03T13:17:56.000Z</time>
      </trkpt>
      <trkpt lat="49.29044" lon="-0.54585">
        <ele>28.60000038147</ele>
        <time>2019-12-03T13:18:04.000Z</time>
      </trkpt>
      <trkpt lat="49.29059" lon="-0.546">
        <ele>29.39999961853</ele>
        <time>2019-12-03T13:18:20.000Z</time>
      </trkpt>
      <trkpt lat="49.29059" lon="-0.54601">
        <ele>29.39999961853</ele>
        <time>2019-12-03T13:18:21.000Z</time>
      </trkpt>
      <trkpt lat="49.29059" lon="-0.54609">
        <ele>29.39999961853</ele>
        <time>2019-12-03T13:18:25.000Z</time>
      </trkpt>
      <trkpt lat="49.29056" lon="-0.54617">
        <ele>29</ele>
        <time>2019-12-03T13:18:35.000Z</time>
      </trkpt>
      <trkpt lat="49.29051" lon="-0.54644">
        <ele>28.799999237061</ele>
        <time>2019-12-03T13:18:54.000Z</time>
      </trkpt>
      <trkpt lat="49.29048" lon="-0.54672">
        <ele>29.39999961853</ele>
        <time>2019-12-03T13:19:14.000Z</time>
      </trkpt>
      <trkpt lat="49.29042" lon="-0.54698">
        <ele>29.799999237061</ele>
        <time>2019-12-03T13:19:32.000Z</time>
      </trkpt>
      <trkpt lat="49.29036" lon="-0.54725">
        <ele>30.200000762939</ele>
        <time>2019-12-03T13:19:53.000Z</time>
      </trkpt>
      <trkpt lat="49.29026" lon="-0.54749">
        <ele>29.799999237061</ele>
        <time>2019-12-03T13:20:16.000Z</time>
      </trkpt>
      <trkpt lat="49.29021" lon="-0.54776">
        <ele>29.60000038147</ele>
        <time>2019-12-03T13:20:34.000Z</time>
      </trkpt>
      <trkpt lat="49.29012" lon="-0.548">
        <ele>29.39999961853</ele>
        <time>2019-12-03T13:20:59.000Z</time>
      </trkpt>
      <trkpt lat="49.29015" lon="-0.5481">
        <ele>29.39999961853</ele>
        <time>2019-12-03T13:21:09.000Z</time>
      </trkpt>
      <trkpt lat="49.29011" lon="-0.54838">
        <ele>29.60000038147</ele>
        <time>2019-12-03T13:21:31.000Z</time>
      </trkpt>
      <trkpt lat="49.29004" lon="-0.54864">
        <ele>29.60000038147</ele>
        <time>2019-12-03T13:21:53.000Z</time>
      </trkpt>
      <trkpt lat="49.28997" lon="-0.54889">
        <ele>29.60000038147</ele>
        <time>2019-12-03T13:22:11.000Z</time>
      </trkpt>
      <trkpt lat="49.28989" lon="-0.54913">
        <ele>30</ele>
        <time>2019-12-03T13:22:32.000Z</time>
      </trkpt>
      <trkpt lat="49.28985" lon="-0.54941">
        <ele>30.799999237061</ele>
        <time>2019-12-03T13:22:52.000Z</time>
      </trkpt>
      <trkpt lat="49.28979" lon="-0.54968">
        <ele>31.200000762939</ele>
        <time>2019-12-03T13:23:16.000Z</time>
      </trkpt>
      <trkpt lat="49.28973" lon="-0.54995">
        <ele>31.200000762939</ele>
        <time>2019-12-03T13:23:33.000Z</time>
      </trkpt>
      <trkpt lat="49.2897" lon="-0.55023">
        <ele>31.60000038147</ele>
        <time>2019-12-03T13:23:51.000Z</time>
      </trkpt>
      <trkpt lat="49.28965" lon="-0.5505">
        <ele>31.60000038147</ele>
        <time>2019-12-03T13:24:06.000Z</time>
      </trkpt>
      <trkpt lat="49.2896" lon="-0.55077">
        <ele>32.200000762939</ele>
        <time>2019-12-03T13:24:21.000Z</time>
      </trkpt>
      <trkpt lat="49.28956" lon="-0.55096">
        <ele>32.400001525879</ele>
        <time>2019-12-03T13:24:30.000Z</time>
      </trkpt>
      <trkpt lat="49.28955" lon="-0.55103">
        <ele>32.599998474121</ele>
        <time>2019-12-03T13:24:33.000Z</time>
      </trkpt>
      <trkpt lat="49.28953" lon="-0.55123">
        <ele>33</ele>
        <time>2019-12-03T13:24:42.000Z</time>
      </trkpt>
      <trkpt lat="49.28953" lon="-0.55125">
        <ele>33</ele>
        <time>2019-12-03T13:24:43.000Z</time>
      </trkpt>
      <trkpt lat="49.28951" lon="-0.55139">
        <ele>33.200000762939</ele>
        <time>2019-12-03T13:24:50.000Z</time>
      </trkpt>
      <trkpt lat="49.28946" lon="-0.55166">
        <ele>33.799999237061</ele>
        <time>2019-12-03T13:25:04.000Z</time>
      </trkpt>
      <trkpt lat="49.28945" lon="-0.55173">
        <ele>33.799999237061</ele>
        <time>2019-12-03T13:25:08.000Z</time>
      </trkpt>
      <trkpt lat="49.28944" lon="-0.55185">
        <ele>34</ele>
        <time>2019-12-03T13:25:15.000Z</time>
      </trkpt>
      <trkpt lat="49.28943" lon="-0.55196">
        <ele>34.200000762939</ele>
        <time>2019-12-03T13:25:22.000Z</time>
      </trkpt>
      <trkpt lat="49.28942" lon="-0.55201">
        <ele>34.200000762939</ele>
        <time>2019-12-03T13:25:25.000Z</time>
      </trkpt>
      <trkpt lat="49.28939" lon="-0.55209">
        <ele>34.200000762939</ele>
        <time>2019-12-03T13:25:30.000Z</time>
      </trkpt>
      <trkpt lat="49.28935" lon="-0.55219">
        <ele>34.200000762939</ele>
        <time>2019-12-03T13:25:37.000Z</time>
      </trkpt>
      <trkpt lat="49.28931" lon="-0.5523">
        <ele>34.200000762939</ele>
        <time>2019-12-03T13:25:44.000Z</time>
      </trkpt>
      <trkpt lat="49.28929" lon="-0.55232">
        <ele>34</ele>
        <time>2019-12-03T13:25:45.000Z</time>
      </trkpt>
      <trkpt lat="49.28929" lon="-0.55242">
        <ele>34.200000762939</ele>
        <time>2019-12-03T13:25:51.000Z</time>
      </trkpt>
      <trkpt lat="49.28929" lon="-0.55261">
        <ele>34.400001525879</ele>
        <time>2019-12-03T13:26:01.000Z</time>
      </trkpt>
      <trkpt lat="49.28928" lon="-0.55264">
        <ele>34.400001525879</ele>
        <time>2019-12-03T13:26:03.000Z</time>
      </trkpt>
      <trkpt lat="49.28926" lon="-0.55269">
        <ele>34.400001525879</ele>
        <time>2019-12-03T13:26:06.000Z</time>
      </trkpt>
      <trkpt lat="49.28926" lon="-0.55283">
        <ele>34.599998474121</ele>
        <time>2019-12-03T13:26:14.000Z</time>
      </trkpt>
      <trkpt lat="49.28924" lon="-0.55297">
        <ele>34.599998474121</ele>
        <time>2019-12-03T13:26:22.000Z</time>
      </trkpt>
      <trkpt lat="49.28924" lon="-0.55313">
        <ele>34.799999237061</ele>
        <time>2019-12-03T13:26:31.000Z</time>
      </trkpt>
      <trkpt lat="49.28923" lon="-0.55317">
        <ele>34.799999237061</ele>
        <time>2019-12-03T13:26:33.000Z</time>
      </trkpt>
      <trkpt lat="49.28923" lon="-0.55323">
        <ele>34.799999237061</ele>
        <time>2019-12-03T13:26:37.000Z</time>
      </trkpt>
      <trkpt lat="49.28927" lon="-0.55344">
        <ele>35.400001525879</ele>
        <time>2019-12-03T13:26:49.000Z</time>
      </trkpt>
      <trkpt lat="49.28933" lon="-0.55371">
        <ele>36</ele>
        <time>2019-12-03T13:27:06.000Z</time>
      </trkpt>
      <trkpt lat="49.28933" lon="-0.55372">
        <ele>36</ele>
        <time>2019-12-03T13:27:07.000Z</time>
      </trkpt>
      <trkpt lat="49.28934" lon="-0.55383">
        <ele>36.200000762939</ele>
        <time>2019-12-03T13:27:15.000Z</time>
      </trkpt>
      <trkpt lat="49.28935" lon="-0.55389">
        <ele>36.400001525879</ele>
        <time>2019-12-03T13:27:20.000Z</time>
      </trkpt>
      <trkpt lat="49.28937" lon="-0.554">
        <ele>36.400001525879</ele>
        <time>2019-12-03T13:27:28.000Z</time>
      </trkpt>
      <trkpt lat="49.28937" lon="-0.55401">
        <ele>36.400001525879</ele>
        <time>2019-12-03T13:27:29.000Z</time>
      </trkpt>
      <trkpt lat="49.28937" lon="-0.55406">
        <ele>36.400001525879</ele>
        <time>2019-12-03T13:27:33.000Z</time>
      </trkpt>
      <trkpt lat="49.28945" lon="-0.55432">
        <ele>36.400001525879</ele>
        <time>2019-12-03T13:27:50.000Z</time>
      </trkpt>
      <trkpt lat="49.28949" lon="-0.55444">
        <ele>36.400001525879</ele>
        <time>2019-12-03T13:27:58.000Z</time>
      </trkpt>
      <trkpt lat="49.2895" lon="-0.55449">
        <ele>36.200000762939</ele>
        <time>2019-12-03T13:28:02.000Z</time>
      </trkpt>
      <trkpt lat="49.28957" lon="-0.55474">
        <ele>36.599998474121</ele>
        <time>2019-12-03T13:28:17.000Z</time>
      </trkpt>
      <trkpt lat="49.28963" lon="-0.55501">
        <ele>37.400001525879</ele>
        <time>2019-12-03T13:28:36.000Z</time>
      </trkpt>
      <trkpt lat="49.28967" lon="-0.55529">
        <ele>38.200000762939</ele>
        <time>2019-12-03T13:28:46.000Z</time>
      </trkpt>
      <trkpt lat="49.28964" lon="-0.55557">
        <ele>38.400001525879</ele>
        <time>2019-12-03T13:28:59.000Z</time>
      </trkpt>
      <trkpt lat="49.28962" lon="-0.55573">
        <ele>38.599998474121</ele>
        <time>2019-12-03T13:29:06.000Z</time>
      </trkpt>
      <trkpt lat="49.28961" lon="-0.55581">
        <ele>38.799999237061</ele>
        <time>2019-12-03T13:29:10.000Z</time>
      </trkpt>
      <trkpt lat="49.28957" lon="-0.55608">
        <ele>39</ele>
        <time>2019-12-03T13:29:23.000Z</time>
      </trkpt>
      <trkpt lat="49.28956" lon="-0.55619">
        <ele>39</ele>
        <time>2019-12-03T13:29:28.000Z</time>
      </trkpt>
      <trkpt lat="49.2895" lon="-0.55646">
        <ele>38.599998474121</ele>
        <time>2019-12-03T13:29:41.000Z</time>
      </trkpt>
      <trkpt lat="49.28946" lon="-0.55663">
        <ele>38</ele>
        <time>2019-12-03T13:29:50.000Z</time>
      </trkpt>
      <trkpt lat="49.28944" lon="-0.55678">
        <ele>37.200000762939</ele>
        <time>2019-12-03T13:29:58.000Z</time>
      </trkpt>
      <trkpt lat="49.28941" lon="-0.55695">
        <ele>36.400001525879</ele>
        <time>2019-12-03T13:30:32.000Z</time>
      </trkpt>
      <trkpt lat="49.2894" lon="-0.55708">
        <ele>35.799999237061</ele>
        <time>2019-12-03T13:30:45.000Z</time>
      </trkpt>
      <trkpt lat="49.28938" lon="-0.55713">
        <ele>35.400001525879</ele>
        <time>2019-12-03T13:30:49.000Z</time>
      </trkpt>
      <trkpt lat="49.28936" lon="-0.55715">
        <ele>35.200000762939</ele>
        <time>2019-12-03T13:30:53.000Z</time>
      </trkpt>
      <trkpt lat="49.28927" lon="-0.55727">
        <ele>34.400001525879</ele>
        <time>2019-12-03T13:31:04.000Z</time>
      </trkpt>
      <trkpt lat="49.28922" lon="-0.55729">
        <ele>34</ele>
        <time>2019-12-03T13:31:09.000Z</time>
      </trkpt>
      <trkpt lat="49.28905" lon="-0.55722">
        <ele>32.599998474121</ele>
        <time>2019-12-03T13:31:27.000Z</time>
      </trkpt>
      <trkpt lat="49.28894" lon="-0.55714">
        <ele>31.799999237061</ele>
        <time>2019-12-03T13:32:22.000Z</time>
      </trkpt>
      <trkpt lat="49.28896" lon="-0.55714">
        <ele>31.799999237061</ele>
        <time>2019-12-03T13:32:36.000Z</time>
      </trkpt>
      <trkpt lat="49.28893" lon="-0.55734">
        <ele>31.799999237061</ele>
        <time>2019-12-03T13:33:15.000Z</time>
      </trkpt>
      <trkpt lat="49.28899" lon="-0.55759">
        <ele>32.400001525879</ele>
        <time>2019-12-03T13:33:34.000Z</time>
      </trkpt>
      <trkpt lat="49.289" lon="-0.55764">
        <ele>32.599998474121</ele>
        <time>2019-12-03T13:33:38.000Z</time>
      </trkpt>
      <trkpt lat="49.289" lon="-0.55793">
        <ele>32.200000762939</ele>
        <time>2019-12-03T13:33:59.000Z</time>
      </trkpt>
      <trkpt lat="49.28907" lon="-0.55819">
        <ele>33.400001525879</ele>
        <time>2019-12-03T13:34:22.000Z</time>
      </trkpt>
      <trkpt lat="49.28911" lon="-0.55846">
        <ele>34.799999237061</ele>
        <time>2019-12-03T13:34:40.000Z</time>
      </trkpt>
      <trkpt lat="49.28911" lon="-0.55874">
        <ele>35.400001525879</ele>
        <time>2019-12-03T13:34:58.000Z</time>
      </trkpt>
      <trkpt lat="49.28911" lon="-0.55902">
        <ele>36.200000762939</ele>
        <time>2019-12-03T13:35:15.000Z</time>
      </trkpt>
      <trkpt lat="49.28896" lon="-0.55911">
        <ele>35.799999237061</ele>
        <time>2019-12-03T13:35:42.000Z</time>
      </trkpt>
      <trkpt lat="49.28895" lon="-0.55916">
        <ele>36</ele>
        <time>2019-12-03T13:37:13.000Z</time>
      </trkpt>
      <trkpt lat="49.28893" lon="-0.55916">
        <ele>35.799999237061</ele>
        <time>2019-12-03T13:37:31.000Z</time>
      </trkpt>
      <trkpt lat="49.28895" lon="-0.55916">
        <ele>36</ele>
        <time>2019-12-03T13:37:51.000Z</time>
      </trkpt>
      <trkpt lat="49.28896" lon="-0.55934">
        <ele>36.400001525879</ele>
        <time>2019-12-03T13:38:41.000Z</time>
      </trkpt>
      <trkpt lat="49.28901" lon="-0.55961">
        <ele>36</ele>
        <time>2019-12-03T13:39:04.000Z</time>
      </trkpt>
      <trkpt lat="49.28907" lon="-0.55989">
        <ele>36</ele>
        <time>2019-12-03T13:39:23.000Z</time>
      </trkpt>
      <trkpt lat="49.28913" lon="-0.56015">
        <ele>35.799999237061</ele>
        <time>2019-12-03T13:39:41.000Z</time>
      </trkpt>
      <trkpt lat="49.28915" lon="-0.56025">
        <ele>35.599998474121</ele>
        <time>2019-12-03T13:39:47.000Z</time>
      </trkpt>
      <trkpt lat="49.28916" lon="-0.56049">
        <ele>35.400001525879</ele>
        <time>2019-12-03T13:40:11.000Z</time>
      </trkpt>
      <trkpt lat="49.28923" lon="-0.56073">
        <ele>35.799999237061</ele>
        <time>2019-12-03T13:40:27.000Z</time>
      </trkpt>
      <trkpt lat="49.28932" lon="-0.56097">
        <ele>35.599998474121</ele>
        <time>2019-12-03T13:40:40.000Z</time>
      </trkpt>
      <trkpt lat="49.28938" lon="-0.56123">
        <ele>35.400001525879</ele>
        <time>2019-12-03T13:40:57.000Z</time>
      </trkpt>
      <trkpt lat="49.28946" lon="-0.56149">
        <ele>35.400001525879</ele>
        <time>2019-12-03T13:41:14.000Z</time>
      </trkpt>
      <trkpt lat="49.28956" lon="-0.56172">
        <ele>36.200000762939</ele>
        <time>2019-12-03T13:41:28.000Z</time>
      </trkpt>
      <trkpt lat="49.2897" lon="-0.5619">
        <ele>37.200000762939</ele>
        <time>2019-12-03T13:41:46.000Z</time>
      </trkpt>
      <trkpt lat="49.28987" lon="-0.56202">
        <ele>37.200000762939</ele>
        <time>2019-12-03T13:42:02.000Z</time>
      </trkpt>
      <trkpt lat="49.29005" lon="-0.5621">
        <ele>37</ele>
        <time>2019-12-03T13:42:20.000Z</time>
      </trkpt>
      <trkpt lat="49.29021" lon="-0.56221">
        <ele>37.200000762939</ele>
        <time>2019-12-03T13:42:40.000Z</time>
      </trkpt>
      <trkpt lat="49.29036" lon="-0.56236">
        <ele>37.599998474121</ele>
        <time>2019-12-03T13:43:04.000Z</time>
      </trkpt>
      <trkpt lat="49.29038" lon="-0.56233">
        <ele>37.599998474121</ele>
        <time>2019-12-03T13:43:16.000Z</time>
      </trkpt>
      <trkpt lat="49.29046" lon="-0.56235">
        <ele>37.799999237061</ele>
        <time>2019-12-03T13:43:48.000Z</time>
      </trkpt>
      <trkpt lat="49.29057" lon="-0.56252">
        <ele>38.400001525879</ele>
        <time>2019-12-03T13:44:16.000Z</time>
      </trkpt>
      <trkpt lat="49.29073" lon="-0.56266">
        <ele>39</ele>
        <time>2019-12-03T13:44:35.000Z</time>
      </trkpt>
      <trkpt lat="49.29089" lon="-0.56278">
        <ele>39</ele>
        <time>2019-12-03T13:44:51.000Z</time>
      </trkpt>
      <trkpt lat="49.29106" lon="-0.56292">
        <ele>39</ele>
        <time>2019-12-03T13:45:11.000Z</time>
      </trkpt>
      <trkpt lat="49.29109" lon="-0.56316">
        <ele>39</ele>
        <time>2019-12-03T13:45:32.000Z</time>
      </trkpt>
      <trkpt lat="49.29109" lon="-0.56344">
        <ele>39</ele>
        <time>2019-12-03T13:45:54.000Z</time>
      </trkpt>
      <trkpt lat="49.29107" lon="-0.56362">
        <ele>39.200000762939</ele>
        <time>2019-12-03T13:46:06.000Z</time>
      </trkpt>
      <trkpt lat="49.29104" lon="-0.56388">
        <ele>39.200000762939</ele>
        <time>2019-12-03T13:46:26.000Z</time>
      </trkpt>
      <trkpt lat="49.29101" lon="-0.56416">
        <ele>40</ele>
        <time>2019-12-03T13:46:44.000Z</time>
      </trkpt>
      <trkpt lat="49.29101" lon="-0.56445">
        <ele>40.599998474121</ele>
        <time>2019-12-03T13:47:03.000Z</time>
      </trkpt>
      <trkpt lat="49.29095" lon="-0.56471">
        <ele>41.200000762939</ele>
        <time>2019-12-03T13:47:23.000Z</time>
      </trkpt>
      <trkpt lat="49.29094" lon="-0.56498">
        <ele>41.799999237061</ele>
        <time>2019-12-03T13:47:40.000Z</time>
      </trkpt>
      <trkpt lat="49.2909" lon="-0.56526">
        <ele>42.200000762939</ele>
        <time>2019-12-03T13:47:56.000Z</time>
      </trkpt>
      <trkpt lat="49.29088" lon="-0.56535">
        <ele>42.400001525879</ele>
        <time>2019-12-03T13:48:02.000Z</time>
      </trkpt>
      <trkpt lat="49.29087" lon="-0.56543">
        <ele>42.599998474121</ele>
        <time>2019-12-03T13:48:07.000Z</time>
      </trkpt>
      <trkpt lat="49.2908" lon="-0.56566">
        <ele>43</ele>
        <time>2019-12-03T13:48:34.000Z</time>
      </trkpt>
      <trkpt lat="49.29076" lon="-0.56592">
        <ele>43.400001525879</ele>
        <time>2019-12-03T13:48:53.000Z</time>
      </trkpt>
      <trkpt lat="49.29067" lon="-0.56609">
        <ele>43.799999237061</ele>
        <time>2019-12-03T13:49:09.000Z</time>
      </trkpt>
      <trkpt lat="49.29065" lon="-0.56618">
        <ele>44</ele>
        <time>2019-12-03T13:49:15.000Z</time>
      </trkpt>
      <trkpt lat="49.29062" lon="-0.56648">
        <ele>44.200000762939</ele>
        <time>2019-12-03T13:49:37.000Z</time>
      </trkpt>
      <trkpt lat="49.29063" lon="-0.56656">
        <ele>44.200000762939</ele>
        <time>2019-12-03T13:49:43.000Z</time>
      </trkpt>
      <trkpt lat="49.29061" lon="-0.56667">
        <ele>44.200000762939</ele>
        <time>2019-12-03T13:49:53.000Z</time>
      </trkpt>
      <trkpt lat="49.2906" lon="-0.56669">
        <ele>44.200000762939</ele>
        <time>2019-12-03T13:49:56.000Z</time>
      </trkpt>
      <trkpt lat="49.29057" lon="-0.56685">
        <ele>44.400001525879</ele>
        <time>2019-12-03T13:50:08.000Z</time>
      </trkpt>
      <trkpt lat="49.29055" lon="-0.56692">
        <ele>44.400001525879</ele>
        <time>2019-12-03T13:50:13.000Z</time>
      </trkpt>
      <trkpt lat="49.29053" lon="-0.56695">
        <ele>44.400001525879</ele>
        <time>2019-12-03T13:50:15.000Z</time>
      </trkpt>
      <trkpt lat="49.29052" lon="-0.56725">
        <ele>45.400001525879</ele>
        <time>2019-12-03T13:50:33.000Z</time>
      </trkpt>
      <trkpt lat="49.29058" lon="-0.56754">
        <ele>45.799999237061</ele>
        <time>2019-12-03T13:50:47.000Z</time>
      </trkpt>
      <trkpt lat="49.2905" lon="-0.56779">
        <ele>46</ele>
        <time>2019-12-03T13:51:06.000Z</time>
      </trkpt>
      <trkpt lat="49.2905" lon="-0.56807">
        <ele>46.599998474121</ele>
        <time>2019-12-03T13:51:22.000Z</time>
      </trkpt>
      <trkpt lat="49.29045" lon="-0.56834">
        <ele>47.200000762939</ele>
        <time>2019-12-03T13:51:41.000Z</time>
      </trkpt>
      <trkpt lat="49.29045" lon="-0.5686">
        <ele>47.799999237061</ele>
        <time>2019-12-03T13:51:57.000Z</time>
      </trkpt>
      <trkpt lat="49.29043" lon="-0.56871">
        <ele>48</ele>
        <time>2019-12-03T13:52:04.000Z</time>
      </trkpt>
      <trkpt lat="49.29039" lon="-0.56895">
        <ele>48.200000762939</ele>
        <time>2019-12-03T13:52:22.000Z</time>
      </trkpt>
      <trkpt lat="49.29037" lon="-0.56898">
        <ele>48.200000762939</ele>
        <time>2019-12-03T13:52:25.000Z</time>
      </trkpt>
      <trkpt lat="49.29037" lon="-0.56902">
        <ele>48.200000762939</ele>
        <time>2019-12-03T13:52:28.000Z</time>
      </trkpt>
      <trkpt lat="49.29032" lon="-0.5692">
        <ele>48.400001525879</ele>
        <time>2019-12-03T13:52:39.000Z</time>
      </trkpt>
      <trkpt lat="49.29029" lon="-0.56924">
        <ele>48.400001525879</ele>
        <time>2019-12-03T13:52:43.000Z</time>
      </trkpt>
      <trkpt lat="49.29027" lon="-0.56945">
        <ele>48.599998474121</ele>
        <time>2019-12-03T13:52:57.000Z</time>
      </trkpt>
      <trkpt lat="49.2902" lon="-0.56953">
        <ele>48.799999237061</ele>
        <time>2019-12-03T13:53:10.000Z</time>
      </trkpt>
      <trkpt lat="49.29017" lon="-0.56959">
        <ele>48.799999237061</ele>
        <time>2019-12-03T13:53:20.000Z</time>
      </trkpt>
      <trkpt lat="49.29018" lon="-0.56979">
        <ele>49.200000762939</ele>
        <time>2019-12-03T13:53:35.000Z</time>
      </trkpt>
      <trkpt lat="49.29019" lon="-0.56999">
        <ele>49.200000762939</ele>
        <time>2019-12-03T13:53:45.000Z</time>
      </trkpt>
      <trkpt lat="49.2902" lon="-0.57005">
        <ele>49.200000762939</ele>
        <time>2019-12-03T13:53:47.000Z</time>
      </trkpt>
      <trkpt lat="49.29018" lon="-0.57016">
        <ele>49.200000762939</ele>
        <time>2019-12-03T13:53:53.000Z</time>
      </trkpt>
      <trkpt lat="49.29019" lon="-0.57031">
        <ele>49.200000762939</ele>
        <time>2019-12-03T13:54:01.000Z</time>
      </trkpt>
      <trkpt lat="49.29021" lon="-0.57039">
        <ele>49.200000762939</ele>
        <time>2019-12-03T13:54:05.000Z</time>
      </trkpt>
      <trkpt lat="49.29022" lon="-0.57039">
        <ele>49</ele>
        <time>2019-12-03T13:54:07.000Z</time>
      </trkpt>
      <trkpt lat="49.29024" lon="-0.57041">
        <ele>49</ele>
        <time>2019-12-03T13:54:10.000Z</time>
      </trkpt>
      <trkpt lat="49.29024" lon="-0.5705">
        <ele>49</ele>
        <time>2019-12-03T13:54:19.000Z</time>
      </trkpt>
      <trkpt lat="49.29025" lon="-0.57057">
        <ele>49.200000762939</ele>
        <time>2019-12-03T13:54:25.000Z</time>
      </trkpt>
      <trkpt lat="49.29005" lon="-0.57057">
        <ele>49.400001525879</ele>
        <time>2019-12-03T13:54:35.000Z</time>
      </trkpt>
      <trkpt lat="49.28987" lon="-0.5705">
        <ele>49.599998474121</ele>
        <time>2019-12-03T13:54:43.000Z</time>
      </trkpt>
      <trkpt lat="49.28984" lon="-0.57047">
        <ele>49.599998474121</ele>
        <time>2019-12-03T13:54:45.000Z</time>
      </trkpt>
      <trkpt lat="49.28982" lon="-0.57049">
        <ele>49.599998474121</ele>
        <time>2019-12-03T13:54:53.000Z</time>
      </trkpt>
      <trkpt lat="49.28969" lon="-0.57052">
        <ele>49.799999237061</ele>
        <time>2019-12-03T13:55:20.000Z</time>
      </trkpt>
      <trkpt lat="49.28959" lon="-0.57049">
        <ele>49.799999237061</ele>
        <time>2019-12-03T13:55:30.000Z</time>
      </trkpt>
      <trkpt lat="49.2894" lon="-0.57045">
        <ele>50</ele>
        <time>2019-12-03T13:55:47.000Z</time>
      </trkpt>
      <trkpt lat="49.28921" lon="-0.57041">
        <ele>50.599998474121</ele>
        <time>2019-12-03T13:56:06.000Z</time>
      </trkpt>
      <trkpt lat="49.28903" lon="-0.57035">
        <ele>51.200000762939</ele>
        <time>2019-12-03T13:56:23.000Z</time>
      </trkpt>
      <trkpt lat="49.28894" lon="-0.57034">
        <ele>51.400001525879</ele>
        <time>2019-12-03T13:56:42.000Z</time>
      </trkpt>
      <trkpt lat="49.28884" lon="-0.57029">
        <ele>51.599998474121</ele>
        <time>2019-12-03T13:56:51.000Z</time>
      </trkpt>
      <trkpt lat="49.28876" lon="-0.57025">
        <ele>51.599998474121</ele>
        <time>2019-12-03T13:56:59.000Z</time>
      </trkpt>
      <trkpt lat="49.2887" lon="-0.57023">
        <ele>51.599998474121</ele>
        <time>2019-12-03T13:57:06.000Z</time>
      </trkpt>
      <trkpt lat="49.28863" lon="-0.57019">
        <ele>51.400001525879</ele>
        <time>2019-12-03T13:57:14.000Z</time>
      </trkpt>
      <trkpt lat="49.28858" lon="-0.57016">
        <ele>51</ele>
        <time>2019-12-03T13:57:18.000Z</time>
      </trkpt>
      <trkpt lat="49.28846" lon="-0.57012">
        <ele>50.200000762939</ele>
        <time>2019-12-03T13:57:29.000Z</time>
      </trkpt>
      <trkpt lat="49.2884" lon="-0.57011">
        <ele>50</ele>
        <time>2019-12-03T13:57:33.000Z</time>
      </trkpt>
      <trkpt lat="49.2883" lon="-0.57015">
        <ele>49.599998474121</ele>
        <time>2019-12-03T13:57:43.000Z</time>
      </trkpt>
      <trkpt lat="49.28815" lon="-0.5702">
        <ele>49.200000762939</ele>
        <time>2019-12-03T13:57:56.000Z</time>
      </trkpt>
      <trkpt lat="49.28809" lon="-0.57021">
        <ele>49</ele>
        <time>2019-12-03T13:58:02.000Z</time>
      </trkpt>
      <trkpt lat="49.28802" lon="-0.57019">
        <ele>49</ele>
        <time>2019-12-03T13:58:11.000Z</time>
      </trkpt>
      <trkpt lat="49.28783" lon="-0.57016">
        <ele>49</ele>
        <time>2019-12-03T13:58:29.000Z</time>
      </trkpt>
      <trkpt lat="49.28766" lon="-0.57009">
        <ele>49</ele>
        <time>2019-12-03T13:58:56.000Z</time>
      </trkpt>
      <trkpt lat="49.28749" lon="-0.57003">
        <ele>49</ele>
        <time>2019-12-03T13:59:16.000Z</time>
      </trkpt>
      <trkpt lat="49.28731" lon="-0.56995">
        <ele>49.599998474121</ele>
        <time>2019-12-03T13:59:35.000Z</time>
      </trkpt>
      <trkpt lat="49.28713" lon="-0.56991">
        <ele>50</ele>
        <time>2019-12-03T13:59:55.000Z</time>
      </trkpt>
      <trkpt lat="49.28695" lon="-0.56986">
        <ele>50.599998474121</ele>
        <time>2019-12-03T14:00:13.000Z</time>
      </trkpt>
      <trkpt lat="49.28676" lon="-0.5698">
        <ele>50.599998474121</ele>
        <time>2019-12-03T14:00:31.000Z</time>
      </trkpt>
      <trkpt lat="49.28658" lon="-0.56974">
        <ele>50</ele>
        <time>2019-12-03T14:00:50.000Z</time>
      </trkpt>
      <trkpt lat="49.28642" lon="-0.56963">
        <ele>49.599998474121</ele>
        <time>2019-12-03T14:01:08.000Z</time>
      </trkpt>
      <trkpt lat="49.28641" lon="-0.56963">
        <ele>49.599998474121</ele>
        <time>2019-12-03T14:01:09.000Z</time>
      </trkpt>
      <trkpt lat="49.28626" lon="-0.56962">
        <ele>49.200000762939</ele>
        <time>2019-12-03T14:01:26.000Z</time>
      </trkpt>
      <trkpt lat="49.28609" lon="-0.56956">
        <ele>48.799999237061</ele>
        <time>2019-12-03T14:01:45.000Z</time>
      </trkpt>
      <trkpt lat="49.28591" lon="-0.56949">
        <ele>48.200000762939</ele>
        <time>2019-12-03T14:02:06.000Z</time>
      </trkpt>
      <trkpt lat="49.28574" lon="-0.56943">
        <ele>47.799999237061</ele>
        <time>2019-12-03T14:02:26.000Z</time>
      </trkpt>
      <trkpt lat="49.28556" lon="-0.56934">
        <ele>47.400001525879</ele>
        <time>2019-12-03T14:02:44.000Z</time>
      </trkpt>
      <trkpt lat="49.28544" lon="-0.56924">
        <ele>47.200000762939</ele>
        <time>2019-12-03T14:02:59.000Z</time>
      </trkpt>
      <trkpt lat="49.28542" lon="-0.56924">
        <ele>47.200000762939</ele>
        <time>2019-12-03T14:03:01.000Z</time>
      </trkpt>
      <trkpt lat="49.28524" lon="-0.56915">
        <ele>47</ele>
        <time>2019-12-03T14:03:19.000Z</time>
      </trkpt>
      <trkpt lat="49.28508" lon="-0.56906">
        <ele>46.799999237061</ele>
        <time>2019-12-03T14:03:46.000Z</time>
      </trkpt>
      <trkpt lat="49.28491" lon="-0.56903">
        <ele>46.200000762939</ele>
        <time>2019-12-03T14:04:12.000Z</time>
      </trkpt>
      <trkpt lat="49.28473" lon="-0.56895">
        <ele>45.799999237061</ele>
        <time>2019-12-03T14:04:32.000Z</time>
      </trkpt>
      <trkpt lat="49.28456" lon="-0.56886">
        <ele>45.200000762939</ele>
        <time>2019-12-03T14:04:50.000Z</time>
      </trkpt>
      <trkpt lat="49.28445" lon="-0.56881">
        <ele>45</ele>
        <time>2019-12-03T14:05:05.000Z</time>
      </trkpt>
      <trkpt lat="49.28436" lon="-0.56875">
        <ele>44.599998474121</ele>
        <time>2019-12-03T14:05:18.000Z</time>
      </trkpt>
      <trkpt lat="49.28418" lon="-0.56866">
        <ele>44</ele>
        <time>2019-12-03T14:05:38.000Z</time>
      </trkpt>
      <trkpt lat="49.28401" lon="-0.56857">
        <ele>43.599998474121</ele>
        <time>2019-12-03T14:05:56.000Z</time>
      </trkpt>
      <trkpt lat="49.28383" lon="-0.56849">
        <ele>42.400001525879</ele>
        <time>2019-12-03T14:06:24.000Z</time>
      </trkpt>
      <trkpt lat="49.28365" lon="-0.56841">
        <ele>41</ele>
        <time>2019-12-03T14:06:43.000Z</time>
      </trkpt>
      <trkpt lat="49.28357" lon="-0.56837">
        <ele>39.799999237061</ele>
        <time>2019-12-03T14:06:52.000Z</time>
      </trkpt>
      <trkpt lat="49.2834" lon="-0.5683">
        <ele>37.200000762939</ele>
        <time>2019-12-03T14:07:30.000Z</time>
      </trkpt>
      <trkpt lat="49.2833" lon="-0.56811">
        <ele>34.799999237061</ele>
        <time>2019-12-03T14:08:15.000Z</time>
      </trkpt>
      <trkpt lat="49.28329" lon="-0.5681">
        <ele>34.599998474121</ele>
        <time>2019-12-03T14:08:16.000Z</time>
      </trkpt>
      <trkpt lat="49.28318" lon="-0.56803">
        <ele>32.599998474121</ele>
        <time>2019-12-03T14:08:29.000Z</time>
      </trkpt>
      <trkpt lat="49.28306" lon="-0.56788">
        <ele>30.39999961853</ele>
        <time>2019-12-03T14:08:50.000Z</time>
      </trkpt>
      <trkpt lat="49.28295" lon="-0.56766">
        <ele>28.200000762939</ele>
        <time>2019-12-03T14:09:15.000Z</time>
      </trkpt>
      <trkpt lat="49.28283" lon="-0.56747">
        <ele>26</ele>
        <time>2019-12-03T14:09:40.000Z</time>
      </trkpt>
      <trkpt lat="49.28267" lon="-0.5673">
        <ele>24</ele>
        <time>2019-12-03T14:10:02.000Z</time>
      </trkpt>
      <trkpt lat="49.2826" lon="-0.56724">
        <ele>23.39999961853</ele>
        <time>2019-12-03T14:10:33.000Z</time>
      </trkpt>
      <trkpt lat="49.28244" lon="-0.56712">
        <ele>21.799999237061</ele>
        <time>2019-12-03T14:10:58.000Z</time>
      </trkpt>
      <trkpt lat="49.28243" lon="-0.56709">
        <ele>21.60000038147</ele>
        <time>2019-12-03T14:11:01.000Z</time>
      </trkpt>
      <trkpt lat="49.28226" lon="-0.56696">
        <ele>20</ele>
        <time>2019-12-03T14:11:23.000Z</time>
      </trkpt>
      <trkpt lat="49.2821" lon="-0.56683">
        <ele>18.799999237061</ele>
        <time>2019-12-03T14:11:42.000Z</time>
      </trkpt>
      <trkpt lat="49.28199" lon="-0.56667">
        <ele>18.200000762939</ele>
        <time>2019-12-03T14:12:15.000Z</time>
      </trkpt>
      <trkpt lat="49.28199" lon="-0.56665">
        <ele>18.200000762939</ele>
        <time>2019-12-03T14:12:24.000Z</time>
      </trkpt>
      <trkpt lat="49.28189" lon="-0.56664">
        <ele>17.60000038147</ele>
        <time>2019-12-03T14:13:09.000Z</time>
      </trkpt>
      <trkpt lat="49.28184" lon="-0.56661">
        <ele>17.200000762939</ele>
        <time>2019-12-03T14:13:13.000Z</time>
      </trkpt>
      <trkpt lat="49.28167" lon="-0.56652">
        <ele>16.60000038147</ele>
        <time>2019-12-03T14:13:32.000Z</time>
      </trkpt>
      <trkpt lat="49.28149" lon="-0.56648">
        <ele>16.39999961853</ele>
        <time>2019-12-03T14:13:49.000Z</time>
      </trkpt>
      <trkpt lat="49.2813" lon="-0.56646">
        <ele>16</ele>
        <time>2019-12-03T14:14:06.000Z</time>
      </trkpt>
      <trkpt lat="49.28127" lon="-0.56645">
        <ele>16</ele>
        <time>2019-12-03T14:14:26.000Z</time>
      </trkpt>
      <trkpt lat="49.28112" lon="-0.56636">
        <ele>16</ele>
        <time>2019-12-03T14:14:50.000Z</time>
      </trkpt>
      <trkpt lat="49.28093" lon="-0.56633">
        <ele>15.60000038147</ele>
        <time>2019-12-03T14:15:14.000Z</time>
      </trkpt>
      <trkpt lat="49.28078" lon="-0.56632">
        <ele>15.199999809265</ele>
        <time>2019-12-03T14:15:30.000Z</time>
      </trkpt>
      <trkpt lat="49.28059" lon="-0.56636">
        <ele>14.800000190735</ele>
        <time>2019-12-03T14:15:47.000Z</time>
      </trkpt>
      <trkpt lat="49.28043" lon="-0.5664">
        <ele>14.39999961853</ele>
        <time>2019-12-03T14:16:01.000Z</time>
      </trkpt>
      <trkpt lat="49.28033" lon="-0.56641">
        <ele>14</ele>
        <time>2019-12-03T14:16:11.000Z</time>
      </trkpt>
      <trkpt lat="49.28016" lon="-0.56646">
        <ele>14</ele>
        <time>2019-12-03T14:16:27.000Z</time>
      </trkpt>
      <trkpt lat="49.28012" lon="-0.56646">
        <ele>14</ele>
        <time>2019-12-03T14:16:31.000Z</time>
      </trkpt>
      <trkpt lat="49.27995" lon="-0.56649">
        <ele>14.199999809265</ele>
        <time>2019-12-03T14:16:46.000Z</time>
      </trkpt>
      <trkpt lat="49.27986" lon="-0.56652">
        <ele>14.39999961853</ele>
        <time>2019-12-03T14:16:55.000Z</time>
      </trkpt>
      <trkpt lat="49.27968" lon="-0.56655">
        <ele>14.39999961853</ele>
        <time>2019-12-03T14:17:14.000Z</time>
      </trkpt>
      <trkpt lat="49.2795" lon="-0.56661">
        <ele>14.60000038147</ele>
        <time>2019-12-03T14:17:29.000Z</time>
      </trkpt>
      <trkpt lat="49.27932" lon="-0.56666">
        <ele>14.800000190735</ele>
        <time>2019-12-03T14:17:50.000Z</time>
      </trkpt>
      <trkpt lat="49.27914" lon="-0.56669">
        <ele>15</ele>
        <time>2019-12-03T14:18:06.000Z</time>
      </trkpt>
      <trkpt lat="49.27895" lon="-0.56668">
        <ele>15.39999961853</ele>
        <time>2019-12-03T14:18:21.000Z</time>
      </trkpt>
      <trkpt lat="49.27885" lon="-0.56662">
        <ele>15.800000190735</ele>
        <time>2019-12-03T14:18:31.000Z</time>
      </trkpt>
      <trkpt lat="49.27878" lon="-0.56657">
        <ele>16.200000762939</ele>
        <time>2019-12-03T14:18:39.000Z</time>
      </trkpt>
      <trkpt lat="49.27863" lon="-0.56641">
        <ele>16.799999237061</ele>
        <time>2019-12-03T14:18:58.000Z</time>
      </trkpt>
      <trkpt lat="49.27845" lon="-0.56631">
        <ele>17.39999961853</ele>
        <time>2019-12-03T14:19:16.000Z</time>
      </trkpt>
      <trkpt lat="49.27844" lon="-0.56631">
        <ele>17.60000038147</ele>
        <time>2019-12-03T14:19:17.000Z</time>
      </trkpt>
      <trkpt lat="49.27839" lon="-0.56628">
        <ele>17.60000038147</ele>
        <time>2019-12-03T14:19:24.000Z</time>
      </trkpt>
      <trkpt lat="49.27825" lon="-0.56631">
        <ele>18</ele>
        <time>2019-12-03T14:20:03.000Z</time>
      </trkpt>
      <trkpt lat="49.27806" lon="-0.56638">
        <ele>18.200000762939</ele>
        <time>2019-12-03T14:20:22.000Z</time>
      </trkpt>
      <trkpt lat="49.27793" lon="-0.56658">
        <ele>18.200000762939</ele>
        <time>2019-12-03T14:20:40.000Z</time>
      </trkpt>
      <trkpt lat="49.2779" lon="-0.56664">
        <ele>18</ele>
        <time>2019-12-03T14:20:43.000Z</time>
      </trkpt>
      <trkpt lat="49.27787" lon="-0.56669">
        <ele>18</ele>
        <time>2019-12-03T14:20:47.000Z</time>
      </trkpt>
      <trkpt lat="49.27774" lon="-0.56689">
        <ele>18</ele>
        <time>2019-12-03T14:21:03.000Z</time>
      </trkpt>
      <trkpt lat="49.27766" lon="-0.56707">
        <ele>18</ele>
        <time>2019-12-03T14:21:15.000Z</time>
      </trkpt>
      <trkpt lat="49.27765" lon="-0.56715">
        <ele>17.799999237061</ele>
        <time>2019-12-03T14:21:19.000Z</time>
      </trkpt>
      <trkpt lat="49.27766" lon="-0.56716">
        <ele>17.60000038147</ele>
        <time>2019-12-03T14:21:20.000Z</time>
      </trkpt>
      <trkpt lat="49.27767" lon="-0.56733">
        <ele>17.60000038147</ele>
        <time>2019-12-03T14:21:32.000Z</time>
      </trkpt>
      <trkpt lat="49.27753" lon="-0.56751">
        <ele>18.200000762939</ele>
        <time>2019-12-03T14:21:50.000Z</time>
      </trkpt>
      <trkpt lat="49.27743" lon="-0.56754">
        <ele>18.39999961853</ele>
        <time>2019-12-03T14:22:00.000Z</time>
      </trkpt>
      <trkpt lat="49.27739" lon="-0.56755">
        <ele>18.60000038147</ele>
        <time>2019-12-03T14:22:04.000Z</time>
      </trkpt>
      <trkpt lat="49.27738" lon="-0.56755">
        <ele>18.60000038147</ele>
        <time>2019-12-03T14:22:05.000Z</time>
      </trkpt>
      <trkpt lat="49.27732" lon="-0.56757">
        <ele>18.799999237061</ele>
        <time>2019-12-03T14:22:11.000Z</time>
      </trkpt>
      <trkpt lat="49.27714" lon="-0.56759">
        <ele>19.60000038147</ele>
        <time>2019-12-03T14:22:28.000Z</time>
      </trkpt>
      <trkpt lat="49.27713" lon="-0.5676">
        <ele>19.799999237061</ele>
        <time>2019-12-03T14:22:29.000Z</time>
      </trkpt>
      <trkpt lat="49.27695" lon="-0.56765">
        <ele>20.39999961853</ele>
        <time>2019-12-03T14:22:54.000Z</time>
      </trkpt>
      <trkpt lat="49.27677" lon="-0.56773">
        <ele>20.60000038147</ele>
        <time>2019-12-03T14:23:12.000Z</time>
      </trkpt>
      <trkpt lat="49.27659" lon="-0.56778">
        <ele>20.799999237061</ele>
        <time>2019-12-03T14:23:29.000Z</time>
      </trkpt>
      <trkpt lat="49.2764" lon="-0.56781">
        <ele>21</ele>
        <time>2019-12-03T14:23:44.000Z</time>
      </trkpt>
      <trkpt lat="49.27623" lon="-0.5679">
        <ele>21</ele>
        <time>2019-12-03T14:23:59.000Z</time>
      </trkpt>
      <trkpt lat="49.27622" lon="-0.5679">
        <ele>21</ele>
        <time>2019-12-03T14:24:00.000Z</time>
      </trkpt>
      <trkpt lat="49.27618" lon="-0.56791">
        <ele>20.799999237061</ele>
        <time>2019-12-03T14:24:04.000Z</time>
      </trkpt>
      <trkpt lat="49.276" lon="-0.56795">
        <ele>20.60000038147</ele>
        <time>2019-12-03T14:24:20.000Z</time>
      </trkpt>
      <trkpt lat="49.27582" lon="-0.56803">
        <ele>20.200000762939</ele>
        <time>2019-12-03T14:24:40.000Z</time>
      </trkpt>
      <trkpt lat="49.27582" lon="-0.56804">
        <ele>20.200000762939</ele>
        <time>2019-12-03T14:24:41.000Z</time>
      </trkpt>
      <trkpt lat="49.27576" lon="-0.56806">
        <ele>20.200000762939</ele>
        <time>2019-12-03T14:24:46.000Z</time>
      </trkpt>
      <trkpt lat="49.27558" lon="-0.56813">
        <ele>19.799999237061</ele>
        <time>2019-12-03T14:25:03.000Z</time>
      </trkpt>
      <trkpt lat="49.27541" lon="-0.56823">
        <ele>19.60000038147</ele>
        <time>2019-12-03T14:25:19.000Z</time>
      </trkpt>
      <trkpt lat="49.27538" lon="-0.56826">
        <ele>19.60000038147</ele>
        <time>2019-12-03T14:25:22.000Z</time>
      </trkpt>
      <trkpt lat="49.27527" lon="-0.56834">
        <ele>19.39999961853</ele>
        <time>2019-12-03T14:25:34.000Z</time>
      </trkpt>
      <trkpt lat="49.27511" lon="-0.56847">
        <ele>19.60000038147</ele>
        <time>2019-12-03T14:25:52.000Z</time>
      </trkpt>
      <trkpt lat="49.27505" lon="-0.56854">
        <ele>19.60000038147</ele>
        <time>2019-12-03T14:25:59.000Z</time>
      </trkpt>
      <trkpt lat="49.27495" lon="-0.56863">
        <ele>19.799999237061</ele>
        <time>2019-12-03T14:26:10.000Z</time>
      </trkpt>
      <trkpt lat="49.27491" lon="-0.56869">
        <ele>19.799999237061</ele>
        <time>2019-12-03T14:26:15.000Z</time>
      </trkpt>
      <trkpt lat="49.27475" lon="-0.56883">
        <ele>20</ele>
        <time>2019-12-03T14:26:35.000Z</time>
      </trkpt>
      <trkpt lat="49.27466" lon="-0.56892">
        <ele>20.200000762939</ele>
        <time>2019-12-03T14:26:47.000Z</time>
      </trkpt>
      <trkpt lat="49.27456" lon="-0.569">
        <ele>20.39999961853</ele>
        <time>2019-12-03T14:26:55.000Z</time>
      </trkpt>
      <trkpt lat="49.2745" lon="-0.56905">
        <ele>20.39999961853</ele>
        <time>2019-12-03T14:27:00.000Z</time>
      </trkpt>
      <trkpt lat="49.27446" lon="-0.56904">
        <ele>20.39999961853</ele>
        <time>2019-12-03T14:27:04.000Z</time>
      </trkpt>
      <trkpt lat="49.27435" lon="-0.5689">
        <ele>20.200000762939</ele>
        <time>2019-12-03T14:27:42.000Z</time>
      </trkpt>
      <trkpt lat="49.27424" lon="-0.56868">
        <ele>20.39999961853</ele>
        <time>2019-12-03T14:27:59.000Z</time>
      </trkpt>
      <trkpt lat="49.27416" lon="-0.56859">
        <ele>20.60000038147</ele>
        <time>2019-12-03T14:28:06.000Z</time>
      </trkpt>
      <trkpt lat="49.27414" lon="-0.56857">
        <ele>20.799999237061</ele>
        <time>2019-12-03T14:28:11.000Z</time>
      </trkpt>
      <trkpt lat="49.274" lon="-0.56839">
        <ele>21.200000762939</ele>
        <time>2019-12-03T14:28:27.000Z</time>
      </trkpt>
      <trkpt lat="49.27393" lon="-0.56828">
        <ele>21.60000038147</ele>
        <time>2019-12-03T14:28:37.000Z</time>
      </trkpt>
      <trkpt lat="49.2739" lon="-0.56824">
        <ele>21.799999237061</ele>
        <time>2019-12-03T14:28:41.000Z</time>
      </trkpt>
      <trkpt lat="49.27378" lon="-0.56803">
        <ele>22.60000038147</ele>
        <time>2019-12-03T14:29:02.000Z</time>
      </trkpt>
      <trkpt lat="49.27366" lon="-0.56783">
        <ele>23.39999961853</ele>
        <time>2019-12-03T14:29:21.000Z</time>
      </trkpt>
      <trkpt lat="49.27354" lon="-0.56761">
        <ele>24.200000762939</ele>
        <time>2019-12-03T14:29:40.000Z</time>
      </trkpt>
      <trkpt lat="49.27341" lon="-0.56743">
        <ele>25</ele>
        <time>2019-12-03T14:29:59.000Z</time>
      </trkpt>
      <trkpt lat="49.27329" lon="-0.56722">
        <ele>25.39999961853</ele>
        <time>2019-12-03T14:30:17.000Z</time>
      </trkpt>
      <trkpt lat="49.27317" lon="-0.56701">
        <ele>25.799999237061</ele>
        <time>2019-12-03T14:30:36.000Z</time>
      </trkpt>
      <trkpt lat="49.27305" lon="-0.5668">
        <ele>26.39999961853</ele>
        <time>2019-12-03T14:30:55.000Z</time>
      </trkpt>
      <trkpt lat="49.27291" lon="-0.5666">
        <ele>27.60000038147</ele>
        <time>2019-12-03T14:31:14.000Z</time>
      </trkpt>
      <trkpt lat="49.27289" lon="-0.56656">
        <ele>27.799999237061</ele>
        <time>2019-12-03T14:31:17.000Z</time>
      </trkpt>
      <trkpt lat="49.27281" lon="-0.5664">
        <ele>28.799999237061</ele>
        <time>2019-12-03T14:31:30.000Z</time>
      </trkpt>
      <trkpt lat="49.27275" lon="-0.56629">
        <ele>29.39999961853</ele>
        <time>2019-12-03T14:31:39.000Z</time>
      </trkpt>
      <trkpt lat="49.27271" lon="-0.56624">
        <ele>29.799999237061</ele>
        <time>2019-12-03T14:31:44.000Z</time>
      </trkpt>
      <trkpt lat="49.27266" lon="-0.56616">
        <ele>30.200000762939</ele>
        <time>2019-12-03T14:31:51.000Z</time>
      </trkpt>
      <trkpt lat="49.27262" lon="-0.56605">
        <ele>30.799999237061</ele>
        <time>2019-12-03T14:31:59.000Z</time>
      </trkpt>
      <trkpt lat="49.27258" lon="-0.56599">
        <ele>31.200000762939</ele>
        <time>2019-12-03T14:32:04.000Z</time>
      </trkpt>
      <trkpt lat="49.27249" lon="-0.56587">
        <ele>32</ele>
        <time>2019-12-03T14:32:16.000Z</time>
      </trkpt>
      <trkpt lat="49.27235" lon="-0.5657">
        <ele>33.200000762939</ele>
        <time>2019-12-03T14:32:36.000Z</time>
      </trkpt>
      <trkpt lat="49.2722" lon="-0.56552">
        <ele>34.599998474121</ele>
        <time>2019-12-03T14:32:57.000Z</time>
      </trkpt>
      <trkpt lat="49.27205" lon="-0.56535">
        <ele>35</ele>
        <time>2019-12-03T14:33:16.000Z</time>
      </trkpt>
      <trkpt lat="49.2719" lon="-0.56518">
        <ele>34.799999237061</ele>
        <time>2019-12-03T14:33:32.000Z</time>
      </trkpt>
      <trkpt lat="49.27187" lon="-0.56515">
        <ele>34.599998474121</ele>
        <time>2019-12-03T14:33:35.000Z</time>
      </trkpt>
      <trkpt lat="49.27173" lon="-0.56498">
        <ele>33.799999237061</ele>
        <time>2019-12-03T14:33:57.000Z</time>
      </trkpt>
      <trkpt lat="49.27155" lon="-0.56491">
        <ele>33.400001525879</ele>
        <time>2019-12-03T14:34:14.000Z</time>
      </trkpt>
      <trkpt lat="49.27138" lon="-0.56479">
        <ele>32.799999237061</ele>
        <time>2019-12-03T14:34:32.000Z</time>
      </trkpt>
      <trkpt lat="49.27121" lon="-0.56469">
        <ele>32.200000762939</ele>
        <time>2019-12-03T14:34:50.000Z</time>
      </trkpt>
      <trkpt lat="49.27111" lon="-0.56463">
        <ele>31.799999237061</ele>
        <time>2019-12-03T14:35:01.000Z</time>
      </trkpt>
      <trkpt lat="49.27094" lon="-0.56451">
        <ele>30.799999237061</ele>
        <time>2019-12-03T14:35:21.000Z</time>
      </trkpt>
      <trkpt lat="49.27078" lon="-0.56439">
        <ele>29.799999237061</ele>
        <time>2019-12-03T14:35:41.000Z</time>
      </trkpt>
      <trkpt lat="49.27064" lon="-0.56424">
        <ele>29</ele>
        <time>2019-12-03T14:35:57.000Z</time>
      </trkpt>
      <trkpt lat="49.27053" lon="-0.56405">
        <ele>29</ele>
        <time>2019-12-03T14:36:29.000Z</time>
      </trkpt>
      <trkpt lat="49.27045" lon="-0.56392">
        <ele>29</ele>
        <time>2019-12-03T14:36:38.000Z</time>
      </trkpt>
      <trkpt lat="49.27043" lon="-0.56388">
        <ele>29</ele>
        <time>2019-12-03T14:36:42.000Z</time>
      </trkpt>
      <trkpt lat="49.27029" lon="-0.5637">
        <ele>28.60000038147</ele>
        <time>2019-12-03T14:36:59.000Z</time>
      </trkpt>
      <trkpt lat="49.27026" lon="-0.56365">
        <ele>28.60000038147</ele>
        <time>2019-12-03T14:37:03.000Z</time>
      </trkpt>
      <trkpt lat="49.27022" lon="-0.56359">
        <ele>28.60000038147</ele>
        <time>2019-12-03T14:37:08.000Z</time>
      </trkpt>
      <trkpt lat="49.27016" lon="-0.56351">
        <ele>28.60000038147</ele>
        <time>2019-12-03T14:37:16.000Z</time>
      </trkpt>
      <trkpt lat="49.27013" lon="-0.56348">
        <ele>28.60000038147</ele>
        <time>2019-12-03T14:37:20.000Z</time>
      </trkpt>
      <trkpt lat="49.27013" lon="-0.56348">
        <ele>28.60000038147</ele>
        <time>2019-12-03T14:37:21.000Z</time>
      </trkpt>
      <trkpt lat="49.26999" lon="-0.56329">
        <ele>28.39999961853</ele>
        <time>2019-12-03T14:37:41.000Z</time>
      </trkpt>
      <trkpt lat="49.26985" lon="-0.5631">
        <ele>29.200000762939</ele>
        <time>2019-12-03T14:37:58.000Z</time>
      </trkpt>
      <trkpt lat="49.26971" lon="-0.56292">
        <ele>29.799999237061</ele>
        <time>2019-12-03T14:38:14.000Z</time>
      </trkpt>
      <trkpt lat="49.2696" lon="-0.56268">
        <ele>30.799999237061</ele>
        <time>2019-12-03T14:38:32.000Z</time>
      </trkpt>
      <trkpt lat="49.26959" lon="-0.56265">
        <ele>31</ele>
        <time>2019-12-03T14:38:34.000Z</time>
      </trkpt>
      <trkpt lat="49.26955" lon="-0.56254">
        <ele>31.39999961853</ele>
        <time>2019-12-03T14:38:42.000Z</time>
      </trkpt>
      <trkpt lat="49.26954" lon="-0.56247">
        <ele>31.799999237061</ele>
        <time>2019-12-03T14:38:46.000Z</time>
      </trkpt>
      <trkpt lat="49.26953" lon="-0.56244">
        <ele>31.799999237061</ele>
        <time>2019-12-03T14:38:48.000Z</time>
      </trkpt>
      <trkpt lat="49.26947" lon="-0.56225">
        <ele>32.799999237061</ele>
        <time>2019-12-03T14:39:01.000Z</time>
      </trkpt>
      <trkpt lat="49.26938" lon="-0.562">
        <ele>33.799999237061</ele>
        <time>2019-12-03T14:39:18.000Z</time>
      </trkpt>
      <trkpt lat="49.26937" lon="-0.56198">
        <ele>33.799999237061</ele>
        <time>2019-12-03T14:39:19.000Z</time>
      </trkpt>
      <trkpt lat="49.26936" lon="-0.56193">
        <ele>34</ele>
        <time>2019-12-03T14:39:23.000Z</time>
      </trkpt>
      <trkpt lat="49.26936" lon="-0.56184">
        <ele>34</ele>
        <time>2019-12-03T14:39:29.000Z</time>
      </trkpt>
      <trkpt lat="49.26935" lon="-0.56177">
        <ele>34.200000762939</ele>
        <time>2019-12-03T14:39:33.000Z</time>
      </trkpt>
      <trkpt lat="49.26942" lon="-0.56154">
        <ele>34</ele>
        <time>2019-12-03T14:39:52.000Z</time>
      </trkpt>
      <trkpt lat="49.26957" lon="-0.56137">
        <ele>33.200000762939</ele>
        <time>2019-12-03T14:40:11.000Z</time>
      </trkpt>
      <trkpt lat="49.26966" lon="-0.56121">
        <ele>33</ele>
        <time>2019-12-03T14:40:24.000Z</time>
      </trkpt>
      <trkpt lat="49.26968" lon="-0.56116">
        <ele>32.799999237061</ele>
        <time>2019-12-03T14:40:28.000Z</time>
      </trkpt>
      <trkpt lat="49.26978" lon="-0.56092">
        <ele>32.599998474121</ele>
        <time>2019-12-03T14:40:46.000Z</time>
      </trkpt>
      <trkpt lat="49.26983" lon="-0.56083">
        <ele>32.599998474121</ele>
        <time>2019-12-03T14:40:53.000Z</time>
      </trkpt>
      <trkpt lat="49.26984" lon="-0.56082">
        <ele>32.599998474121</ele>
        <time>2019-12-03T14:40:54.000Z</time>
      </trkpt>
      <trkpt lat="49.26989" lon="-0.56071">
        <ele>32.400001525879</ele>
        <time>2019-12-03T14:41:03.000Z</time>
      </trkpt>
      <trkpt lat="49.26999" lon="-0.56048">
        <ele>32.200000762939</ele>
        <time>2019-12-03T14:41:23.000Z</time>
      </trkpt>
      <trkpt lat="49.27007" lon="-0.56022">
        <ele>32</ele>
        <time>2019-12-03T14:41:41.000Z</time>
      </trkpt>
      <trkpt lat="49.27012" lon="-0.55997">
        <ele>32</ele>
        <time>2019-12-03T14:42:11.000Z</time>
      </trkpt>
      <trkpt lat="49.27013" lon="-0.55996">
        <ele>31.799999237061</ele>
        <time>2019-12-03T14:42:13.000Z</time>
      </trkpt>
      <trkpt lat="49.26999" lon="-0.55978">
        <ele>32.799999237061</ele>
        <time>2019-12-03T14:42:46.000Z</time>
      </trkpt>
      <trkpt lat="49.26983" lon="-0.55967">
        <ele>33.799999237061</ele>
        <time>2019-12-03T14:43:02.000Z</time>
      </trkpt>
      <trkpt lat="49.2698" lon="-0.55959">
        <ele>34.400001525879</ele>
        <time>2019-12-03T14:43:09.000Z</time>
      </trkpt>
      <trkpt lat="49.26964" lon="-0.55945">
        <ele>35.799999237061</ele>
        <time>2019-12-03T14:43:32.000Z</time>
      </trkpt>
      <trkpt lat="49.26962" lon="-0.55943">
        <ele>36</ele>
        <time>2019-12-03T14:43:34.000Z</time>
      </trkpt>
      <trkpt lat="49.26946" lon="-0.55929">
        <ele>37.799999237061</ele>
        <time>2019-12-03T14:43:56.000Z</time>
      </trkpt>
      <trkpt lat="49.26936" lon="-0.55921">
        <ele>39.200000762939</ele>
        <time>2019-12-03T14:44:08.000Z</time>
      </trkpt>
      <trkpt lat="49.2692" lon="-0.5591">
        <ele>41.200000762939</ele>
        <time>2019-12-03T14:44:27.000Z</time>
      </trkpt>
      <trkpt lat="49.26903" lon="-0.55896">
        <ele>42.799999237061</ele>
        <time>2019-12-03T14:44:49.000Z</time>
      </trkpt>
      <trkpt lat="49.26887" lon="-0.55882">
        <ele>44.200000762939</ele>
        <time>2019-12-03T14:45:11.000Z</time>
      </trkpt>
      <trkpt lat="49.26873" lon="-0.5587">
        <ele>45.400001525879</ele>
        <time>2019-12-03T14:45:41.000Z</time>
      </trkpt>
      <trkpt lat="49.26862" lon="-0.55853">
        <ele>46</ele>
        <time>2019-12-03T14:46:14.000Z</time>
      </trkpt>
      <trkpt lat="49.26861" lon="-0.55848">
        <ele>46</ele>
        <time>2019-12-03T14:46:18.000Z</time>
      </trkpt>
      <trkpt lat="49.26861" lon="-0.55828">
        <ele>46</ele>
        <time>2019-12-03T14:46:56.000Z</time>
      </trkpt>
      <trkpt lat="49.2685" lon="-0.55831">
        <ele>46.599998474121</ele>
        <time>2019-12-03T14:48:23.000Z</time>
      </trkpt>
      <trkpt lat="49.26837" lon="-0.5581">
        <ele>47.200000762939</ele>
        <time>2019-12-03T14:48:49.000Z</time>
      </trkpt>
      <trkpt lat="49.2683" lon="-0.55785">
        <ele>47.799999237061</ele>
        <time>2019-12-03T14:49:13.000Z</time>
      </trkpt>
      <trkpt lat="49.26823" lon="-0.55764">
        <ele>48.400001525879</ele>
        <time>2019-12-03T14:49:35.000Z</time>
      </trkpt>
      <trkpt lat="49.26817" lon="-0.55737">
        <ele>49</ele>
        <time>2019-12-03T14:50:03.000Z</time>
      </trkpt>
      <trkpt lat="49.26813" lon="-0.55709">
        <ele>49.400001525879</ele>
        <time>2019-12-03T14:50:24.000Z</time>
      </trkpt>
      <trkpt lat="49.26809" lon="-0.55682">
        <ele>49.599998474121</ele>
        <time>2019-12-03T14:50:42.000Z</time>
      </trkpt>
      <trkpt lat="49.26809" lon="-0.55679">
        <ele>49.400001525879</ele>
        <time>2019-12-03T14:50:44.000Z</time>
      </trkpt>
      <trkpt lat="49.26806" lon="-0.55651">
        <ele>49.200000762939</ele>
        <time>2019-12-03T14:51:11.000Z</time>
      </trkpt>
      <trkpt lat="49.26802" lon="-0.55624">
        <ele>49.400001525879</ele>
        <time>2019-12-03T14:51:30.000Z</time>
      </trkpt>
      <trkpt lat="49.26799" lon="-0.55597">
        <ele>49.599998474121</ele>
        <time>2019-12-03T14:51:49.000Z</time>
      </trkpt>
      <trkpt lat="49.26796" lon="-0.55568">
        <ele>49.599998474121</ele>
        <time>2019-12-03T14:52:08.000Z</time>
      </trkpt>
      <trkpt lat="49.26792" lon="-0.55541">
        <ele>49.799999237061</ele>
        <time>2019-12-03T14:52:27.000Z</time>
      </trkpt>
      <trkpt lat="49.26789" lon="-0.55513">
        <ele>49.799999237061</ele>
        <time>2019-12-03T14:52:44.000Z</time>
      </trkpt>
      <trkpt lat="49.26784" lon="-0.55486">
        <ele>50</ele>
        <time>2019-12-03T14:53:01.000Z</time>
      </trkpt>
      <trkpt lat="49.2678" lon="-0.55459">
        <ele>50</ele>
        <time>2019-12-03T14:53:19.000Z</time>
      </trkpt>
      <trkpt lat="49.26775" lon="-0.55439">
        <ele>50.599998474121</ele>
        <time>2019-12-03T14:53:31.000Z</time>
      </trkpt>
      <trkpt lat="49.2677" lon="-0.55414">
        <ele>51</ele>
        <time>2019-12-03T14:53:46.000Z</time>
      </trkpt>
      <trkpt lat="49.2677" lon="-0.55408">
        <ele>51.200000762939</ele>
        <time>2019-12-03T14:53:50.000Z</time>
      </trkpt>
      <trkpt lat="49.26768" lon="-0.55395">
        <ele>51.400001525879</ele>
        <time>2019-12-03T14:53:58.000Z</time>
      </trkpt>
      <trkpt lat="49.26765" lon="-0.5538">
        <ele>51.599998474121</ele>
        <time>2019-12-03T14:54:08.000Z</time>
      </trkpt>
      <trkpt lat="49.2676" lon="-0.55352">
        <ele>52</ele>
        <time>2019-12-03T14:54:25.000Z</time>
      </trkpt>
      <trkpt lat="49.26756" lon="-0.55325">
        <ele>52.599998474121</ele>
        <time>2019-12-03T14:54:42.000Z</time>
      </trkpt>
      <trkpt lat="49.26752" lon="-0.55298">
        <ele>52.400001525879</ele>
        <time>2019-12-03T14:54:59.000Z</time>
      </trkpt>
      <trkpt lat="49.26748" lon="-0.55271">
        <ele>52</ele>
        <time>2019-12-03T14:55:16.000Z</time>
      </trkpt>
      <trkpt lat="49.26747" lon="-0.55265">
        <ele>52</ele>
        <time>2019-12-03T14:55:20.000Z</time>
      </trkpt>
      <trkpt lat="49.26746" lon="-0.55254">
        <ele>51.799999237061</ele>
        <time>2019-12-03T14:55:28.000Z</time>
      </trkpt>
      <trkpt lat="49.26746" lon="-0.55252">
        <ele>51.799999237061</ele>
        <time>2019-12-03T14:55:29.000Z</time>
      </trkpt>
      <trkpt lat="49.26745" lon="-0.55243">
        <ele>51.799999237061</ele>
        <time>2019-12-03T14:55:35.000Z</time>
      </trkpt>
      <trkpt lat="49.2674" lon="-0.55216">
        <ele>51.400001525879</ele>
        <time>2019-12-03T14:55:53.000Z</time>
      </trkpt>
      <trkpt lat="49.26736" lon="-0.55188">
        <ele>51.200000762939</ele>
        <time>2019-12-03T14:56:10.000Z</time>
      </trkpt>
      <trkpt lat="49.26732" lon="-0.55161">
        <ele>51.200000762939</ele>
        <time>2019-12-03T14:56:28.000Z</time>
      </trkpt>
      <trkpt lat="49.26729" lon="-0.55133">
        <ele>51.200000762939</ele>
        <time>2019-12-03T14:56:44.000Z</time>
      </trkpt>
      <trkpt lat="49.26726" lon="-0.55105">
        <ele>51.200000762939</ele>
        <time>2019-12-03T14:57:02.000Z</time>
      </trkpt>
      <trkpt lat="49.26726" lon="-0.55077">
        <ele>52</ele>
        <time>2019-12-03T14:57:19.000Z</time>
      </trkpt>
      <trkpt lat="49.26725" lon="-0.55066">
        <ele>52.200000762939</ele>
        <time>2019-12-03T14:57:27.000Z</time>
      </trkpt>
      <trkpt lat="49.26726" lon="-0.55046">
        <ele>52.599998474121</ele>
        <time>2019-12-03T14:57:44.000Z</time>
      </trkpt>
      <trkpt lat="49.26724" lon="-0.55026">
        <ele>52.599998474121</ele>
        <time>2019-12-03T14:58:00.000Z</time>
      </trkpt>
      <trkpt lat="49.26723" lon="-0.55019">
        <ele>52.799999237061</ele>
        <time>2019-12-03T14:58:04.000Z</time>
      </trkpt>
      <trkpt lat="49.26723" lon="-0.55008">
        <ele>53</ele>
        <time>2019-12-03T14:58:11.000Z</time>
      </trkpt>
      <trkpt lat="49.26722" lon="-0.54979">
        <ele>53.799999237061</ele>
        <time>2019-12-03T14:58:28.000Z</time>
      </trkpt>
      <trkpt lat="49.26722" lon="-0.54972">
        <ele>54</ele>
        <time>2019-12-03T14:58:32.000Z</time>
      </trkpt>
      <trkpt lat="49.26722" lon="-0.54943">
        <ele>54.400001525879</ele>
        <time>2019-12-03T14:58:48.000Z</time>
      </trkpt>
      <trkpt lat="49.26723" lon="-0.54937">
        <ele>54.400001525879</ele>
        <time>2019-12-03T14:58:52.000Z</time>
      </trkpt>
      <trkpt lat="49.26723" lon="-0.54931">
        <ele>54.400001525879</ele>
        <time>2019-12-03T14:58:56.000Z</time>
      </trkpt>
      <trkpt lat="49.26725" lon="-0.54915">
        <ele>54.599998474121</ele>
        <time>2019-12-03T14:59:05.000Z</time>
      </trkpt>
      <trkpt lat="49.26725" lon="-0.54914">
        <ele>54.599998474121</ele>
        <time>2019-12-03T14:59:06.000Z</time>
      </trkpt>
      <trkpt lat="49.26727" lon="-0.54904">
        <ele>54.599998474121</ele>
        <time>2019-12-03T14:59:12.000Z</time>
      </trkpt>
      <trkpt lat="49.26727" lon="-0.54895">
        <ele>54.599998474121</ele>
        <time>2019-12-03T14:59:17.000Z</time>
      </trkpt>
      <trkpt lat="49.26728" lon="-0.54879">
        <ele>54.799999237061</ele>
        <time>2019-12-03T14:59:28.000Z</time>
      </trkpt>
      <trkpt lat="49.26728" lon="-0.54872">
        <ele>54.599998474121</ele>
        <time>2019-12-03T14:59:33.000Z</time>
      </trkpt>
      <trkpt lat="49.26731" lon="-0.54862">
        <ele>54.400001525879</ele>
        <time>2019-12-03T14:59:40.000Z</time>
      </trkpt>
      <trkpt lat="49.26733" lon="-0.54834">
        <ele>54.799999237061</ele>
        <time>2019-12-03T14:59:57.000Z</time>
      </trkpt>
      <trkpt lat="49.26734" lon="-0.54806">
        <ele>55.200000762939</ele>
        <time>2019-12-03T15:00:13.000Z</time>
      </trkpt>
      <trkpt lat="49.26734" lon="-0.54804">
        <ele>55.200000762939</ele>
        <time>2019-12-03T15:00:15.000Z</time>
      </trkpt>
      <trkpt lat="49.26738" lon="-0.54777">
        <ele>55.200000762939</ele>
        <time>2019-12-03T15:00:37.000Z</time>
      </trkpt>
      <trkpt lat="49.26739" lon="-0.54748">
        <ele>55.200000762939</ele>
        <time>2019-12-03T15:00:54.000Z</time>
      </trkpt>
      <trkpt lat="49.2674" lon="-0.54721">
        <ele>54.799999237061</ele>
        <time>2019-12-03T15:01:11.000Z</time>
      </trkpt>
      <trkpt lat="49.26741" lon="-0.54692">
        <ele>54.799999237061</ele>
        <time>2019-12-03T15:01:30.000Z</time>
      </trkpt>
      <trkpt lat="49.26738" lon="-0.54664">
        <ele>55</ele>
        <time>2019-12-03T15:01:49.000Z</time>
      </trkpt>
      <trkpt lat="49.26741" lon="-0.54637">
        <ele>54.799999237061</ele>
        <time>2019-12-03T15:02:15.000Z</time>
      </trkpt>
      <trkpt lat="49.26746" lon="-0.54609">
        <ele>54.799999237061</ele>
        <time>2019-12-03T15:02:35.000Z</time>
      </trkpt>
      <trkpt lat="49.26755" lon="-0.54584">
        <ele>54.400001525879</ele>
        <time>2019-12-03T15:02:50.000Z</time>
      </trkpt>
      <trkpt lat="49.26758" lon="-0.54566">
        <ele>54.200000762939</ele>
        <time>2019-12-03T15:02:59.000Z</time>
      </trkpt>
      <trkpt lat="49.26756" lon="-0.54552">
        <ele>54.200000762939</ele>
        <time>2019-12-03T15:03:05.000Z</time>
      </trkpt>
      <trkpt lat="49.26756" lon="-0.54529">
        <ele>53.799999237061</ele>
        <time>2019-12-03T15:03:17.000Z</time>
      </trkpt>
      <trkpt lat="49.26752" lon="-0.54502">
        <ele>53.799999237061</ele>
        <time>2019-12-03T15:03:33.000Z</time>
      </trkpt>
      <trkpt lat="49.26749" lon="-0.54481">
        <ele>53.400001525879</ele>
        <time>2019-12-03T15:03:45.000Z</time>
      </trkpt>
      <trkpt lat="49.26748" lon="-0.54475">
        <ele>53.400001525879</ele>
        <time>2019-12-03T15:03:49.000Z</time>
      </trkpt>
      <trkpt lat="49.26745" lon="-0.54446">
        <ele>52.799999237061</ele>
        <time>2019-12-03T15:04:07.000Z</time>
      </trkpt>
      <trkpt lat="49.26745" lon="-0.54419">
        <ele>52.200000762939</ele>
        <time>2019-12-03T15:04:24.000Z</time>
      </trkpt>
      <trkpt lat="49.26744" lon="-0.54411">
        <ele>51.799999237061</ele>
        <time>2019-12-03T15:04:30.000Z</time>
      </trkpt>
      <trkpt lat="49.26743" lon="-0.54401">
        <ele>51.200000762939</ele>
        <time>2019-12-03T15:04:38.000Z</time>
      </trkpt>
      <trkpt lat="49.26743" lon="-0.54395">
        <ele>51</ele>
        <time>2019-12-03T15:04:46.000Z</time>
      </trkpt>
      <trkpt lat="49.26742" lon="-0.54367">
        <ele>50.400001525879</ele>
        <time>2019-12-03T15:05:07.000Z</time>
      </trkpt>
      <trkpt lat="49.26742" lon="-0.54339">
        <ele>50.400001525879</ele>
        <time>2019-12-03T15:05:25.000Z</time>
      </trkpt>
      <trkpt lat="49.26741" lon="-0.5431">
        <ele>50.200000762939</ele>
        <time>2019-12-03T15:05:44.000Z</time>
      </trkpt>
      <trkpt lat="49.26741" lon="-0.54283">
        <ele>50.200000762939</ele>
        <time>2019-12-03T15:06:02.000Z</time>
      </trkpt>
      <trkpt lat="49.26742" lon="-0.54261">
        <ele>50.400001525879</ele>
        <time>2019-12-03T15:06:16.000Z</time>
      </trkpt>
      <trkpt lat="49.26743" lon="-0.54234">
        <ele>50.599998474121</ele>
        <time>2019-12-03T15:06:34.000Z</time>
      </trkpt>
      <trkpt lat="49.26744" lon="-0.54222">
        <ele>50.599998474121</ele>
        <time>2019-12-03T15:06:43.000Z</time>
      </trkpt>
      <trkpt lat="49.26745" lon="-0.54215">
        <ele>50.599998474121</ele>
        <time>2019-12-03T15:06:48.000Z</time>
      </trkpt>
      <trkpt lat="49.26751" lon="-0.54189">
        <ele>51</ele>
        <time>2019-12-03T15:07:09.000Z</time>
      </trkpt>
      <trkpt lat="49.26753" lon="-0.54162">
        <ele>51.400001525879</ele>
        <time>2019-12-03T15:07:29.000Z</time>
      </trkpt>
      <trkpt lat="49.26754" lon="-0.54133">
        <ele>51.400001525879</ele>
        <time>2019-12-03T15:07:48.000Z</time>
      </trkpt>
      <trkpt lat="49.26754" lon="-0.54126">
        <ele>51.400001525879</ele>
        <time>2019-12-03T15:07:53.000Z</time>
      </trkpt>
      <trkpt lat="49.26756" lon="-0.54099">
        <ele>51.400001525879</ele>
        <time>2019-12-03T15:08:10.000Z</time>
      </trkpt>
      <trkpt lat="49.26757" lon="-0.54078">
        <ele>51.400001525879</ele>
        <time>2019-12-03T15:08:23.000Z</time>
      </trkpt>
      <trkpt lat="49.26756" lon="-0.5405">
        <ele>50.799999237061</ele>
        <time>2019-12-03T15:08:47.000Z</time>
      </trkpt>
      <trkpt lat="49.26756" lon="-0.54022">
        <ele>50.599998474121</ele>
        <time>2019-12-03T15:09:06.000Z</time>
      </trkpt>
      <trkpt lat="49.26755" lon="-0.54011">
        <ele>50.400001525879</ele>
        <time>2019-12-03T15:09:18.000Z</time>
      </trkpt>
      <trkpt lat="49.2676" lon="-0.54014">
        <ele>50.599998474121</ele>
        <time>2019-12-03T15:10:24.000Z</time>
      </trkpt>
      <trkpt lat="49.26776" lon="-0.54028">
        <ele>51.599998474121</ele>
        <time>2019-12-03T15:10:44.000Z</time>
      </trkpt>
      <trkpt lat="49.26794" lon="-0.54035">
        <ele>51.200000762939</ele>
        <time>2019-12-03T15:10:59.000Z</time>
      </trkpt>
      <trkpt lat="49.26801" lon="-0.54036">
        <ele>51</ele>
        <time>2019-12-03T15:11:05.000Z</time>
      </trkpt>
      <trkpt lat="49.26819" lon="-0.54043">
        <ele>50</ele>
        <time>2019-12-03T15:11:21.000Z</time>
      </trkpt>
      <trkpt lat="49.26825" lon="-0.54045">
        <ele>49.799999237061</ele>
        <time>2019-12-03T15:11:26.000Z</time>
      </trkpt>
      <trkpt lat="49.2683" lon="-0.54045">
        <ele>49.599998474121</ele>
        <time>2019-12-03T15:11:31.000Z</time>
      </trkpt>
      <trkpt lat="49.26848" lon="-0.54045">
        <ele>48.599998474121</ele>
        <time>2019-12-03T15:11:48.000Z</time>
      </trkpt>
      <trkpt lat="49.26867" lon="-0.54046">
        <ele>48</ele>
        <time>2019-12-03T15:12:06.000Z</time>
      </trkpt>
      <trkpt lat="49.26868" lon="-0.54046">
        <ele>48</ele>
        <time>2019-12-03T15:12:07.000Z</time>
      </trkpt>
      <trkpt lat="49.26887" lon="-0.54045">
        <ele>48</ele>
        <time>2019-12-03T15:12:25.000Z</time>
      </trkpt>
      <trkpt lat="49.26901" lon="-0.54042">
        <ele>48</ele>
        <time>2019-12-03T15:12:38.000Z</time>
      </trkpt>
      <trkpt lat="49.26909" lon="-0.5404">
        <ele>48</ele>
        <time>2019-12-03T15:12:46.000Z</time>
      </trkpt>
      <trkpt lat="49.26913" lon="-0.54039">
        <ele>48</ele>
        <time>2019-12-03T15:12:50.000Z</time>
      </trkpt>
      <trkpt lat="49.26931" lon="-0.54038">
        <ele>48</ele>
        <time>2019-12-03T15:13:08.000Z</time>
      </trkpt>
      <trkpt lat="49.26934" lon="-0.54038">
        <ele>48</ele>
        <time>2019-12-03T15:13:11.000Z</time>
      </trkpt>
      <trkpt lat="49.26952" lon="-0.54039">
        <ele>48</ele>
        <time>2019-12-03T15:13:29.000Z</time>
      </trkpt>
      <trkpt lat="49.26971" lon="-0.54038">
        <ele>48.200000762939</ele>
        <time>2019-12-03T15:13:57.000Z</time>
      </trkpt>
      <trkpt lat="49.26989" lon="-0.54036">
        <ele>48.599998474121</ele>
        <time>2019-12-03T15:14:12.000Z</time>
      </trkpt>
      <trkpt lat="49.27007" lon="-0.54034">
        <ele>48.799999237061</ele>
        <time>2019-12-03T15:14:29.000Z</time>
      </trkpt>
      <trkpt lat="49.27015" lon="-0.54033">
        <ele>48.799999237061</ele>
        <time>2019-12-03T15:14:36.000Z</time>
      </trkpt>
      <trkpt lat="49.27033" lon="-0.5403">
        <ele>49</ele>
        <time>2019-12-03T15:14:52.000Z</time>
      </trkpt>
      <trkpt lat="49.27051" lon="-0.54028">
        <ele>48.799999237061</ele>
        <time>2019-12-03T15:15:08.000Z</time>
      </trkpt>
      <trkpt lat="49.27069" lon="-0.54027">
        <ele>48.599998474121</ele>
        <time>2019-12-03T15:15:24.000Z</time>
      </trkpt>
      <trkpt lat="49.27088" lon="-0.54026">
        <ele>48.400001525879</ele>
        <time>2019-12-03T15:15:41.000Z</time>
      </trkpt>
      <trkpt lat="49.27106" lon="-0.54024">
        <ele>48</ele>
        <time>2019-12-03T15:15:57.000Z</time>
      </trkpt>
      <trkpt lat="49.27125" lon="-0.54022">
        <ele>48</ele>
        <time>2019-12-03T15:16:14.000Z</time>
      </trkpt>
      <trkpt lat="49.27143" lon="-0.54022">
        <ele>48</ele>
        <time>2019-12-03T15:16:31.000Z</time>
      </trkpt>
      <trkpt lat="49.27162" lon="-0.54021">
        <ele>47.799999237061</ele>
        <time>2019-12-03T15:16:48.000Z</time>
      </trkpt>
      <trkpt lat="49.2718" lon="-0.54021">
        <ele>47.599998474121</ele>
        <time>2019-12-03T15:17:05.000Z</time>
      </trkpt>
      <trkpt lat="49.27199" lon="-0.54024">
        <ele>47.200000762939</ele>
        <time>2019-12-03T15:17:22.000Z</time>
      </trkpt>
      <trkpt lat="49.27217" lon="-0.54026">
        <ele>47</ele>
        <time>2019-12-03T15:17:38.000Z</time>
      </trkpt>
      <trkpt lat="49.27235" lon="-0.54028">
        <ele>47</ele>
        <time>2019-12-03T15:17:55.000Z</time>
      </trkpt>
      <trkpt lat="49.27253" lon="-0.54029">
        <ele>47</ele>
        <time>2019-12-03T15:18:12.000Z</time>
      </trkpt>
      <trkpt lat="49.27272" lon="-0.54031">
        <ele>47</ele>
        <time>2019-12-03T15:18:29.000Z</time>
      </trkpt>
      <trkpt lat="49.2729" lon="-0.54033">
        <ele>47</ele>
        <time>2019-12-03T15:18:47.000Z</time>
      </trkpt>
      <trkpt lat="49.27308" lon="-0.54034">
        <ele>46.799999237061</ele>
        <time>2019-12-03T15:19:04.000Z</time>
      </trkpt>
      <trkpt lat="49.27326" lon="-0.54034">
        <ele>46.599998474121</ele>
        <time>2019-12-03T15:19:20.000Z</time>
      </trkpt>
      <trkpt lat="49.27345" lon="-0.54036">
        <ele>46.400001525879</ele>
        <time>2019-12-03T15:19:38.000Z</time>
      </trkpt>
      <trkpt lat="49.27364" lon="-0.54035">
        <ele>46.200000762939</ele>
        <time>2019-12-03T15:19:56.000Z</time>
      </trkpt>
      <trkpt lat="49.27375" lon="-0.54037">
        <ele>46</ele>
        <time>2019-12-03T15:20:08.000Z</time>
      </trkpt>
      <trkpt lat="49.27394" lon="-0.5404">
        <ele>45.599998474121</ele>
        <time>2019-12-03T15:20:26.000Z</time>
      </trkpt>
      <trkpt lat="49.27412" lon="-0.54045">
        <ele>45</ele>
        <time>2019-12-03T15:20:44.000Z</time>
      </trkpt>
      <trkpt lat="49.2743" lon="-0.54053">
        <ele>44.400001525879</ele>
        <time>2019-12-03T15:21:02.000Z</time>
      </trkpt>
      <trkpt lat="49.27441" lon="-0.5406">
        <ele>44</ele>
        <time>2019-12-03T15:21:13.000Z</time>
      </trkpt>
      <trkpt lat="49.27448" lon="-0.54064">
        <ele>44</ele>
        <time>2019-12-03T15:21:21.000Z</time>
      </trkpt>
      <trkpt lat="49.27465" lon="-0.54076">
        <ele>44</ele>
        <time>2019-12-03T15:21:39.000Z</time>
      </trkpt>
      <trkpt lat="49.27481" lon="-0.5409">
        <ele>44</ele>
        <time>2019-12-03T15:21:56.000Z</time>
      </trkpt>
      <trkpt lat="49.27496" lon="-0.54104">
        <ele>44</ele>
        <time>2019-12-03T15:22:13.000Z</time>
      </trkpt>
      <trkpt lat="49.27511" lon="-0.54119">
        <ele>44</ele>
        <time>2019-12-03T15:22:31.000Z</time>
      </trkpt>
      <trkpt lat="49.27523" lon="-0.54129">
        <ele>44</ele>
        <time>2019-12-03T15:22:43.000Z</time>
      </trkpt>
      <trkpt lat="49.27539" lon="-0.54143">
        <ele>44.200000762939</ele>
        <time>2019-12-03T15:23:01.000Z</time>
      </trkpt>
      <trkpt lat="49.27554" lon="-0.54158">
        <ele>44.200000762939</ele>
        <time>2019-12-03T15:23:18.000Z</time>
      </trkpt>
      <trkpt lat="49.27566" lon="-0.54171">
        <ele>44.400001525879</ele>
        <time>2019-12-03T15:23:31.000Z</time>
      </trkpt>
      <trkpt lat="49.27574" lon="-0.54182">
        <ele>44.400001525879</ele>
        <time>2019-12-03T15:23:41.000Z</time>
      </trkpt>
      <trkpt lat="49.27589" lon="-0.54199">
        <ele>43.799999237061</ele>
        <time>2019-12-03T15:23:58.000Z</time>
      </trkpt>
      <trkpt lat="49.276" lon="-0.54222">
        <ele>43.200000762939</ele>
        <time>2019-12-03T15:24:15.000Z</time>
      </trkpt>
      <trkpt lat="49.27608" lon="-0.54248">
        <ele>42.799999237061</ele>
        <time>2019-12-03T15:24:32.000Z</time>
      </trkpt>
      <trkpt lat="49.27611" lon="-0.54275">
        <ele>42.400001525879</ele>
        <time>2019-12-03T15:24:49.000Z</time>
      </trkpt>
      <trkpt lat="49.27616" lon="-0.54303">
        <ele>42</ele>
        <time>2019-12-03T15:25:06.000Z</time>
      </trkpt>
      <trkpt lat="49.27622" lon="-0.54329">
        <ele>42</ele>
        <time>2019-12-03T15:25:24.000Z</time>
      </trkpt>
      <trkpt lat="49.27631" lon="-0.54354">
        <ele>42</ele>
        <time>2019-12-03T15:25:40.000Z</time>
      </trkpt>
      <trkpt lat="49.27641" lon="-0.54378">
        <ele>41.799999237061</ele>
        <time>2019-12-03T15:25:57.000Z</time>
      </trkpt>
      <trkpt lat="49.27653" lon="-0.54399">
        <ele>41.400001525879</ele>
        <time>2019-12-03T15:26:14.000Z</time>
      </trkpt>
      <trkpt lat="49.27665" lon="-0.54421">
        <ele>40.799999237061</ele>
        <time>2019-12-03T15:26:30.000Z</time>
      </trkpt>
      <trkpt lat="49.27679" lon="-0.54441">
        <ele>40</ele>
        <time>2019-12-03T15:26:47.000Z</time>
      </trkpt>
      <trkpt lat="49.27692" lon="-0.54462">
        <ele>39.200000762939</ele>
        <time>2019-12-03T15:27:04.000Z</time>
      </trkpt>
      <trkpt lat="49.27694" lon="-0.54466">
        <ele>39</ele>
        <time>2019-12-03T15:27:07.000Z</time>
      </trkpt>
      <trkpt lat="49.27697" lon="-0.54475">
        <ele>38.799999237061</ele>
        <time>2019-12-03T15:27:13.000Z</time>
      </trkpt>
      <trkpt lat="49.27699" lon="-0.54478">
        <ele>38.799999237061</ele>
        <time>2019-12-03T15:27:16.000Z</time>
      </trkpt>
      <trkpt lat="49.27706" lon="-0.54493">
        <ele>38.400001525879</ele>
        <time>2019-12-03T15:27:27.000Z</time>
      </trkpt>
      <trkpt lat="49.27709" lon="-0.54501">
        <ele>38.200000762939</ele>
        <time>2019-12-03T15:27:33.000Z</time>
      </trkpt>
      <trkpt lat="49.27712" lon="-0.54513">
        <ele>37.799999237061</ele>
        <time>2019-12-03T15:27:42.000Z</time>
      </trkpt>
      <trkpt lat="49.27712" lon="-0.54539">
        <ele>37.200000762939</ele>
        <time>2019-12-03T15:27:56.000Z</time>
      </trkpt>
      <trkpt lat="49.27711" lon="-0.54541">
        <ele>37.200000762939</ele>
        <time>2019-12-03T15:27:59.000Z</time>
      </trkpt>
      <trkpt lat="49.27715" lon="-0.5455">
        <ele>37</ele>
        <time>2019-12-03T15:28:12.000Z</time>
      </trkpt>
      <trkpt lat="49.27727" lon="-0.5456">
        <ele>37</ele>
        <time>2019-12-03T15:28:27.000Z</time>
      </trkpt>
      <trkpt lat="49.27738" lon="-0.54565">
        <ele>37</ele>
        <time>2019-12-03T15:28:39.000Z</time>
      </trkpt>
      <trkpt lat="49.27754" lon="-0.54561">
        <ele>37</ele>
        <time>2019-12-03T15:28:59.000Z</time>
      </trkpt>
      <trkpt lat="49.27769" lon="-0.54544">
        <ele>37.200000762939</ele>
        <time>2019-12-03T15:29:18.000Z</time>
      </trkpt>
      <trkpt lat="49.27786" lon="-0.54531">
        <ele>37.400001525879</ele>
        <time>2019-12-03T15:29:32.000Z</time>
      </trkpt>
      <trkpt lat="49.27802" lon="-0.54516">
        <ele>37.599998474121</ele>
        <time>2019-12-03T15:29:48.000Z</time>
      </trkpt>
      <trkpt lat="49.27818" lon="-0.54501">
        <ele>37.799999237061</ele>
        <time>2019-12-03T15:30:06.000Z</time>
      </trkpt>
      <trkpt lat="49.27833" lon="-0.54488">
        <ele>37.799999237061</ele>
        <time>2019-12-03T15:30:26.000Z</time>
      </trkpt>
      <trkpt lat="49.27845" lon="-0.54474">
        <ele>38</ele>
        <time>2019-12-03T15:30:41.000Z</time>
      </trkpt>
      <trkpt lat="49.27834" lon="-0.54451">
        <ele>39</ele>
        <time>2019-12-03T15:30:59.000Z</time>
      </trkpt>
      <trkpt lat="49.27834" lon="-0.54442">
        <ele>39.200000762939</ele>
        <time>2019-12-03T15:31:05.000Z</time>
      </trkpt>
      <trkpt lat="49.27838" lon="-0.54438">
        <ele>39.400001525879</ele>
        <time>2019-12-03T15:31:10.000Z</time>
      </trkpt>
      <trkpt lat="49.27842" lon="-0.54429">
        <ele>39.599998474121</ele>
        <time>2019-12-03T15:31:18.000Z</time>
      </trkpt>
      <trkpt lat="49.27843" lon="-0.54397">
        <ele>40.799999237061</ele>
        <time>2019-12-03T15:31:36.000Z</time>
      </trkpt>
      <trkpt lat="49.27843" lon="-0.54396">
        <ele>40.799999237061</ele>
        <time>2019-12-03T15:31:37.000Z</time>
      </trkpt>
      <trkpt lat="49.27838" lon="-0.54384">
        <ele>41.200000762939</ele>
        <time>2019-12-03T15:31:45.000Z</time>
      </trkpt>
      <trkpt lat="49.27834" lon="-0.54371">
        <ele>41.599998474121</ele>
        <time>2019-12-03T15:31:55.000Z</time>
      </trkpt>
      <trkpt lat="49.27833" lon="-0.54363">
        <ele>41.599998474121</ele>
        <time>2019-12-03T15:32:01.000Z</time>
      </trkpt>
      <trkpt lat="49.27841" lon="-0.54352">
        <ele>41.599998474121</ele>
        <time>2019-12-03T15:32:14.000Z</time>
      </trkpt>
      <trkpt lat="49.27848" lon="-0.54344">
        <ele>41.599998474121</ele>
        <time>2019-12-03T15:32:23.000Z</time>
      </trkpt>
      <trkpt lat="49.27864" lon="-0.54332">
        <ele>41.599998474121</ele>
        <time>2019-12-03T15:32:43.000Z</time>
      </trkpt>
      <trkpt lat="49.27869" lon="-0.54327">
        <ele>41.599998474121</ele>
        <time>2019-12-03T15:32:49.000Z</time>
      </trkpt>
      <trkpt lat="49.27877" lon="-0.54321">
        <ele>41.599998474121</ele>
        <time>2019-12-03T15:32:59.000Z</time>
      </trkpt>
      <trkpt lat="49.2788" lon="-0.54318">
        <ele>41.599998474121</ele>
        <time>2019-12-03T15:33:03.000Z</time>
      </trkpt>
      <trkpt lat="49.27896" lon="-0.54305">
        <ele>41.599998474121</ele>
        <time>2019-12-03T15:33:21.000Z</time>
      </trkpt>
      <trkpt lat="49.27911" lon="-0.54287">
        <ele>41.599998474121</ele>
        <time>2019-12-03T15:33:37.000Z</time>
      </trkpt>
      <trkpt lat="49.27926" lon="-0.54269">
        <ele>41.599998474121</ele>
        <time>2019-12-03T15:33:53.000Z</time>
      </trkpt>
      <trkpt lat="49.2794" lon="-0.5425">
        <ele>41.599998474121</ele>
        <time>2019-12-03T15:34:11.000Z</time>
      </trkpt>
      <trkpt lat="49.2795" lon="-0.54228">
        <ele>41.799999237061</ele>
        <time>2019-12-03T15:34:28.000Z</time>
      </trkpt>
      <trkpt lat="49.27963" lon="-0.54207">
        <ele>41.599998474121</ele>
        <time>2019-12-03T15:34:44.000Z</time>
      </trkpt>
      <trkpt lat="49.27975" lon="-0.54187">
        <ele>41.400001525879</ele>
        <time>2019-12-03T15:35:02.000Z</time>
      </trkpt>
      <trkpt lat="49.27985" lon="-0.54163">
        <ele>41</ele>
        <time>2019-12-03T15:35:18.000Z</time>
      </trkpt>
      <trkpt lat="49.27999" lon="-0.54143">
        <ele>40.799999237061</ele>
        <time>2019-12-03T15:35:37.000Z</time>
      </trkpt>
      <trkpt lat="49.28009" lon="-0.5412">
        <ele>40.400001525879</ele>
        <time>2019-12-03T15:35:53.000Z</time>
      </trkpt>
      <trkpt lat="49.2802" lon="-0.54097">
        <ele>40.200000762939</ele>
        <time>2019-12-03T15:36:09.000Z</time>
      </trkpt>
      <trkpt lat="49.28029" lon="-0.54095">
        <ele>40</ele>
        <time>2019-12-03T15:36:20.000Z</time>
      </trkpt>
      <trkpt lat="49.28039" lon="-0.54073">
        <ele>40</ele>
        <time>2019-12-03T15:36:43.000Z</time>
      </trkpt>
      <trkpt lat="49.28053" lon="-0.54055">
        <ele>40</ele>
        <time>2019-12-03T15:37:00.000Z</time>
      </trkpt>
      <trkpt lat="49.28058" lon="-0.54028">
        <ele>39.799999237061</ele>
        <time>2019-12-03T15:37:18.000Z</time>
      </trkpt>
      <trkpt lat="49.28058" lon="-0.54021">
        <ele>39.599998474121</ele>
        <time>2019-12-03T15:37:23.000Z</time>
      </trkpt>
      <trkpt lat="49.28071" lon="-0.54003">
        <ele>39.400001525879</ele>
        <time>2019-12-03T15:37:40.000Z</time>
      </trkpt>
      <trkpt lat="49.28085" lon="-0.53984">
        <ele>39.200000762939</ele>
        <time>2019-12-03T15:38:01.000Z</time>
      </trkpt>
      <trkpt lat="49.28097" lon="-0.5397">
        <ele>39</ele>
        <time>2019-12-03T15:38:15.000Z</time>
      </trkpt>
      <trkpt lat="49.28111" lon="-0.53952">
        <ele>39.200000762939</ele>
        <time>2019-12-03T15:38:35.000Z</time>
      </trkpt>
      <trkpt lat="49.28124" lon="-0.53933">
        <ele>39</ele>
        <time>2019-12-03T15:38:54.000Z</time>
      </trkpt>
      <trkpt lat="49.2814" lon="-0.5392">
        <ele>38.599998474121</ele>
        <time>2019-12-03T15:39:14.000Z</time>
      </trkpt>
      <trkpt lat="49.28152" lon="-0.53899">
        <ele>38.400001525879</ele>
        <time>2019-12-03T15:39:34.000Z</time>
      </trkpt>
      <trkpt lat="49.28153" lon="-0.53898">
        <ele>38.400001525879</ele>
        <time>2019-12-03T15:39:35.000Z</time>
      </trkpt>
      <trkpt lat="49.28158" lon="-0.53892">
        <ele>38.200000762939</ele>
        <time>2019-12-03T15:39:41.000Z</time>
      </trkpt>
      <trkpt lat="49.28172" lon="-0.53875">
        <ele>38</ele>
        <time>2019-12-03T15:40:02.000Z</time>
      </trkpt>
      <trkpt lat="49.28186" lon="-0.53856">
        <ele>37.799999237061</ele>
        <time>2019-12-03T15:40:27.000Z</time>
      </trkpt>
      <trkpt lat="49.28189" lon="-0.53853">
        <ele>37.599998474121</ele>
        <time>2019-12-03T15:40:34.000Z</time>
      </trkpt>
      <trkpt lat="49.28202" lon="-0.53861">
        <ele>37.200000762939</ele>
        <time>2019-12-03T15:40:56.000Z</time>
      </trkpt>
      <trkpt lat="49.28202" lon="-0.53869">
        <ele>37</ele>
        <time>2019-12-03T15:41:01.000Z</time>
      </trkpt>
      <trkpt lat="49.28213" lon="-0.53892">
        <ele>36.400001525879</ele>
        <time>2019-12-03T15:41:19.000Z</time>
      </trkpt>
      <trkpt lat="49.28226" lon="-0.53913">
        <ele>36</ele>
        <time>2019-12-03T15:41:37.000Z</time>
      </trkpt>
      <trkpt lat="49.28238" lon="-0.53934">
        <ele>35.599998474121</ele>
        <time>2019-12-03T15:41:53.000Z</time>
      </trkpt>
      <trkpt lat="49.28241" lon="-0.53941">
        <ele>35.599998474121</ele>
        <time>2019-12-03T15:41:58.000Z</time>
      </trkpt>
      <trkpt lat="49.28255" lon="-0.53962">
        <ele>35.599998474121</ele>
        <time>2019-12-03T15:42:16.000Z</time>
      </trkpt>
      <trkpt lat="49.2826" lon="-0.53972">
        <ele>35.400001525879</ele>
        <time>2019-12-03T15:42:24.000Z</time>
      </trkpt>
      <trkpt lat="49.28265" lon="-0.53972">
        <ele>35.400001525879</ele>
        <time>2019-12-03T15:42:29.000Z</time>
      </trkpt>
      <trkpt lat="49.28279" lon="-0.53989">
        <ele>35</ele>
        <time>2019-12-03T15:42:46.000Z</time>
      </trkpt>
      <trkpt lat="49.28288" lon="-0.54014">
        <ele>35</ele>
        <time>2019-12-03T15:43:03.000Z</time>
      </trkpt>
      <trkpt lat="49.28297" lon="-0.54033">
        <ele>34.799999237061</ele>
        <time>2019-12-03T15:43:16.000Z</time>
      </trkpt>
      <trkpt lat="49.28305" lon="-0.54048">
        <ele>34.400001525879</ele>
        <time>2019-12-03T15:43:28.000Z</time>
      </trkpt>
      <trkpt lat="49.28307" lon="-0.54054">
        <ele>34.400001525879</ele>
        <time>2019-12-03T15:43:32.000Z</time>
      </trkpt>
      <trkpt lat="49.28308" lon="-0.54056">
        <ele>34.400001525879</ele>
        <time>2019-12-03T15:43:33.000Z</time>
      </trkpt>
      <trkpt lat="49.28312" lon="-0.5406">
        <ele>34.200000762939</ele>
        <time>2019-12-03T15:43:38.000Z</time>
      </trkpt>
      <trkpt lat="49.28317" lon="-0.54054">
        <ele>34.200000762939</ele>
        <time>2019-12-03T15:43:45.000Z</time>
      </trkpt>
      <trkpt lat="49.28317" lon="-0.54053">
        <ele>34.200000762939</ele>
        <time>2019-12-03T15:43:46.000Z</time>
      </trkpt>
      <trkpt lat="49.28317" lon="-0.54055">
        <ele>34.200000762939</ele>
        <time>2019-12-03T15:43:59.000Z</time>
      </trkpt>
      <trkpt lat="49.28323" lon="-0.54047">
        <ele>34</ele>
        <time>2019-12-03T15:44:28.000Z</time>
      </trkpt>
      <trkpt lat="49.28336" lon="-0.54026">
        <ele>34</ele>
        <time>2019-12-03T15:44:45.000Z</time>
      </trkpt>
      <trkpt lat="49.28349" lon="-0.54005">
        <ele>33.799999237061</ele>
        <time>2019-12-03T15:45:02.000Z</time>
      </trkpt>
      <trkpt lat="49.28362" lon="-0.53985">
        <ele>33.799999237061</ele>
        <time>2019-12-03T15:45:18.000Z</time>
      </trkpt>
      <trkpt lat="49.28372" lon="-0.53962">
        <ele>33.799999237061</ele>
        <time>2019-12-03T15:45:35.000Z</time>
      </trkpt>
      <trkpt lat="49.28377" lon="-0.53951">
        <ele>33.799999237061</ele>
        <time>2019-12-03T15:45:43.000Z</time>
      </trkpt>
      <trkpt lat="49.2838" lon="-0.53943">
        <ele>33.799999237061</ele>
        <time>2019-12-03T15:45:48.000Z</time>
      </trkpt>
      <trkpt lat="49.2838" lon="-0.53941">
        <ele>33.799999237061</ele>
        <time>2019-12-03T15:45:50.000Z</time>
      </trkpt>
      <trkpt lat="49.2839" lon="-0.53917">
        <ele>33.599998474121</ele>
        <time>2019-12-03T15:46:08.000Z</time>
      </trkpt>
      <trkpt lat="49.28399" lon="-0.53893">
        <ele>33.599998474121</ele>
        <time>2019-12-03T15:46:25.000Z</time>
      </trkpt>
      <trkpt lat="49.28406" lon="-0.53888">
        <ele>33.400001525879</ele>
        <time>2019-12-03T15:46:34.000Z</time>
      </trkpt>
      <trkpt lat="49.28411" lon="-0.53894">
        <ele>33.400001525879</ele>
        <time>2019-12-03T15:46:39.000Z</time>
      </trkpt>
      <trkpt lat="49.28426" lon="-0.53908">
        <ele>33.200000762939</ele>
        <time>2019-12-03T15:46:55.000Z</time>
      </trkpt>
      <trkpt lat="49.28433" lon="-0.53918">
        <ele>32.799999237061</ele>
        <time>2019-12-03T15:47:06.000Z</time>
      </trkpt>
      <trkpt lat="49.28441" lon="-0.53927">
        <ele>32.599998474121</ele>
        <time>2019-12-03T15:47:14.000Z</time>
      </trkpt>
      <trkpt lat="49.28452" lon="-0.53924">
        <ele>32.400001525879</ele>
        <time>2019-12-03T15:48:11.000Z</time>
      </trkpt>
      <trkpt lat="49.28466" lon="-0.53939">
        <ele>31.799999237061</ele>
        <time>2019-12-03T15:48:45.000Z</time>
      </trkpt>
      <trkpt lat="49.28478" lon="-0.53959">
        <ele>30.799999237061</ele>
        <time>2019-12-03T15:49:07.000Z</time>
      </trkpt>
      <trkpt lat="49.28494" lon="-0.53958">
        <ele>30</ele>
        <time>2019-12-03T15:49:28.000Z</time>
      </trkpt>
      <trkpt lat="49.28511" lon="-0.53944">
        <ele>29.799999237061</ele>
        <time>2019-12-03T15:49:49.000Z</time>
      </trkpt>
      <trkpt lat="49.28527" lon="-0.53949">
        <ele>28.799999237061</ele>
        <time>2019-12-03T15:50:16.000Z</time>
      </trkpt>
      <trkpt lat="49.28536" lon="-0.53924">
        <ele>29.39999961853</ele>
        <time>2019-12-03T15:50:30.000Z</time>
      </trkpt>
      <trkpt lat="49.28544" lon="-0.53899">
        <ele>30.200000762939</ele>
        <time>2019-12-03T15:50:41.000Z</time>
      </trkpt>
      <trkpt lat="49.28549" lon="-0.53885">
        <ele>30.39999961853</ele>
        <time>2019-12-03T15:50:51.000Z</time>
      </trkpt>
      <trkpt lat="49.28558" lon="-0.53864">
        <ele>30.60000038147</ele>
        <time>2019-12-03T15:51:29.000Z</time>
      </trkpt>
      <trkpt lat="49.2857" lon="-0.53844">
        <ele>30.60000038147</ele>
        <time>2019-12-03T15:51:48.000Z</time>
      </trkpt>
      <trkpt lat="49.28583" lon="-0.53823">
        <ele>30.39999961853</ele>
        <time>2019-12-03T15:52:18.000Z</time>
      </trkpt>
      <trkpt lat="49.28596" lon="-0.53804">
        <ele>30.39999961853</ele>
        <time>2019-12-03T15:52:39.000Z</time>
      </trkpt>
      <trkpt lat="49.28614" lon="-0.53813">
        <ele>29.799999237061</ele>
        <time>2019-12-03T15:52:58.000Z</time>
      </trkpt>
      <trkpt lat="49.2863" lon="-0.53825">
        <ele>29.39999961853</ele>
        <time>2019-12-03T15:53:13.000Z</time>
      </trkpt>
      <trkpt lat="49.28642" lon="-0.53823">
        <ele>29.39999961853</ele>
        <time>2019-12-03T15:53:26.000Z</time>
      </trkpt>
      <trkpt lat="49.28644" lon="-0.53819">
        <ele>29.39999961853</ele>
        <time>2019-12-03T15:53:31.000Z</time>
      </trkpt>
      <trkpt lat="49.28652" lon="-0.53795">
        <ele>29.60000038147</ele>
        <time>2019-12-03T15:54:01.000Z</time>
      </trkpt>
      <trkpt lat="49.28664" lon="-0.53775">
        <ele>29.60000038147</ele>
        <time>2019-12-03T15:54:19.000Z</time>
      </trkpt>
      <trkpt lat="49.2867" lon="-0.53768">
        <ele>29.799999237061</ele>
        <time>2019-12-03T15:54:27.000Z</time>
      </trkpt>
      <trkpt lat="49.28677" lon="-0.53756">
        <ele>29.799999237061</ele>
        <time>2019-12-03T15:54:39.000Z</time>
      </trkpt>
      <trkpt lat="49.28679" lon="-0.53753">
        <ele>29.799999237061</ele>
        <time>2019-12-03T15:54:46.000Z</time>
      </trkpt>
    </trkseg>
  </trk>
</gpx>